Observation data for Stinnett on 03/05/2021      Previous  Date  Next       Current Mesonet Observations  Soil Data  Daily Summary Page  Observations in Plain Language
KST3 050600Z 32017KT 07/M01 A2993 RMK A01 T00661006  RH  060%=      5-min Rain = 0
KST3 050601Z 32017KT 07/M01 A2993 RMK A01 T00661005  RH  060%=      5-min Rain = 0
KST3 050602Z 32019KT 07/M01 A2993 RMK A01 T00661005  RH  061%=      5-min Rain = 0
KST3 050603Z 32018KT 07/M01 A2993 RMK A01 T00661005  RH  061%=      5-min Rain = 0
KST3 050604Z 32018KT 07/M01 A2993 RMK A01 T00661005  RH  061%=      5-min Rain = 0
KST3 050605Z 32018KT 07/M00 A2993 RMK A01 T00661004  RH  061%=      5-min Rain = 0
KST3 050606Z 32019G24KT 07/M00 A2993 RMK A01 T00651004  RH  061%=      5-min Rain = 0
KST3 050607Z 32019KT 07/M00 A2992 RMK A01 T00651003  RH  061%=      5-min Rain = 0
KST3 050608Z 32017KT 07/M00 A2992 RMK A01 T00661003  RH  062%=      5-min Rain = 0
KST3 050609Z 31018G23KT 07/M00 A2992 RMK A01 T00661003  RH  062%=      5-min Rain = 0
KST3 050610Z 32017KT 07/M00 A2992 RMK A01 T00661002  RH  062%=      5-min Rain = 0
KST3 050611Z 32019KT 07/M00 A2992 RMK A01 T00661002  RH  062%=      5-min Rain = 0
KST3 050612Z 32018KT 07/M00 A2992 RMK A01 T00671002  RH  062%=      5-min Rain = 0
KST3 050613Z 32019KT 07/M00 A2992 RMK A01 T00661001  RH  062%=      5-min Rain = 0
KST3 050614Z 32019KT 07/M00 A2992 RMK A01 T00661001  RH  062%=      5-min Rain = 0
KST3 050615Z 32019G24KT 07/M00 A2992 RMK A01 T00661001  RH  062%=      5-min Rain = 0
KST3 050616Z 31019KT 07/M00 A2992 RMK A01 T00661001  RH  063%=      5-min Rain = 0
KST3 050617Z 31021KT 07/00 A2992 RMK A01 T006600-0  RH  063%=      5-min Rain = 0
KST3 050618Z 31022G27KT 07/00 A2992 RMK A01 T00660001  RH  063%=      5-min Rain = 0
KST3 050619Z 32020G25KT 07/00 A2992 RMK A01 T00670001  RH  063%=      5-min Rain = 0
KST3 050620Z 31017KT 07/00 A2992 RMK A01 T00670001  RH  063%=      5-min Rain = 0
KST3 050621Z 31021KT 07/00 A2992 RMK A01 T00670002  RH  063%=      5-min Rain = 0
KST3 050622Z 31019G24KT 07/00 A2992 RMK A01 T00660002  RH  063%=      5-min Rain = 0
KST3 050623Z 32018G23KT 07/00 A2992 RMK A01 T00660002  RH  063%=      5-min Rain = 0
KST3 050624Z 32019KT 07/00 A2992 RMK A01 T00660002  RH  064%=      5-min Rain = 0
KST3 050625Z 32020G25KT 07/00 A2992 RMK A01 T00650002  RH  064%=      5-min Rain = 0
KST3 050626Z 32018KT 07/00 A2992 RMK A01 T00650003  RH  064%=      5-min Rain = 0
KST3 050627Z 32017G22KT 07/00 A2992 RMK A01 T00660003  RH  064%=      5-min Rain = 0
KST3 050628Z 32019KT 07/00 A2992 RMK A01 T00650003  RH  064%=      5-min Rain = 0
KST3 050629Z 32019KT 07/00 A2992 RMK A01 T00650003  RH  065%=      5-min Rain = 0
KST3 050630Z 32019KT 07/00 A2992 RMK A01 T00650003  RH  065%=      5-min Rain = 0
KST3 050631Z 32022KT 07/00 A2992 RMK A01 T00650004  RH  065%=      5-min Rain = 0
KST3 050632Z 31019G24KT 07/01 A2992 RMK A01 T00660005  RH  065%=      5-min Rain = 0
KST3 050633Z 31021KT 07/00 A2992 RMK A01 T00660004  RH  065%=      5-min Rain = 0
KST3 050634Z 31020G25KT 07/01 A2992 RMK A01 T00660005  RH  065%=      5-min Rain = 0
KST3 050635Z 31019KT 07/01 A2992 RMK A01 T00660005  RH  065%=      5-min Rain = 0
KST3 050636Z 32019KT 07/01 A2992 RMK A01 T00660006  RH  065%=      5-min Rain = 0
KST3 050637Z 31020G25KT 07/01 A2992 RMK A01 T00660005  RH  065%=      5-min Rain = 0
KST3 050638Z 31020KT 07/01 A2992 RMK A01 T00660006  RH  065%=      5-min Rain = 0
KST3 050639Z 31020KT 07/01 A2992 RMK A01 T00660006  RH  066%=      5-min Rain = 0
KST3 050640Z 31020G27KT 07/01 A2992 RMK A01 T00660006  RH  066%=      5-min Rain = 0
KST3 050641Z 32020KT 07/01 A2992 RMK A01 T00660006  RH  066%=      5-min Rain = 0
KST3 050642Z 32021KT 07/01 A2992 RMK A01 T00660007  RH  066%=      5-min Rain = 0
KST3 050643Z 31020KT 07/01 A2992 RMK A01 T00660007  RH  066%=      5-min Rain = 0
KST3 050644Z 32019KT 07/01 A2992 RMK A01 T00660007  RH  066%=      5-min Rain = 0
KST3 050645Z 32020KT 07/01 A2992 RMK A01 T00650007  RH  066%=      5-min Rain = 0
KST3 050646Z 32017KT 07/01 A2992 RMK A01 T00650007  RH  066%=      5-min Rain = 0
KST3 050647Z 32020KT 07/01 A2992 RMK A01 T00650007  RH  066%=      5-min Rain = 0
KST3 050648Z 32019KT 07/01 A2992 RMK A01 T00650007  RH  067%=      5-min Rain = 0
KST3 050649Z 32018KT 07/01 A2992 RMK A01 T00650008  RH  067%=      5-min Rain = 0
KST3 050650Z 31019KT 06/01 A2992 RMK A01 T00640007  RH  067%=      5-min Rain = 0
KST3 050651Z 32019KT 06/01 A2992 RMK A01 T00640007  RH  067%=      5-min Rain = 0
KST3 050652Z 31018KT 07/01 A2992 RMK A01 T00650008  RH  067%=      5-min Rain = 0
KST3 050653Z 32018KT 07/01 A2992 RMK A01 T00650008  RH  067%=      5-min Rain = 0
KST3 050654Z 31018G23KT 06/01 A2992 RMK A01 T00640008  RH  067%=      5-min Rain = 0
KST3 050655Z 32019KT 06/01 A2992 RMK A01 T00640008  RH  067%=      5-min Rain = 0
KST3 050656Z 32017KT 06/01 A2992 RMK A01 T00640008  RH  067%=      5-min Rain = 0
KST3 050657Z 32018KT 06/01 A2992 RMK A01 T00640008  RH  067%=      5-min Rain = 0
KST3 050658Z 32019KT 06/01 A2991 RMK A01 T00640008  RH  068%=      5-min Rain = 0
KST3 050659Z 32018G23KT 06/01 A2991 RMK A01 T00640009  RH  068%=      5-min Rain = 0
KST3 050700Z 32017KT 06/01 A2991 RMK A01 T00640008  RH  067%=      5-min Rain = 0
KST3 050701Z 32017KT 06/01 A2991 RMK A01 T00640008  RH  067%=      5-min Rain = 0
KST3 050702Z 32021KT 06/01 A2991 RMK A01 T00640009  RH  068%=      5-min Rain = 0
KST3 050703Z 31018KT 06/01 A2991 RMK A01 T00640009  RH  068%=      5-min Rain = 0
KST3 050704Z 31016G22KT 06/01 A2992 RMK A01 T00640008  RH  068%=      5-min Rain = 0
KST3 050705Z 31016KT 06/01 A2992 RMK A01 T00630008  RH  068%=      5-min Rain = 0
KST3 050706Z 32017G22KT 06/01 A2992 RMK A01 T00630008  RH  068%=      5-min Rain = 0
KST3 050707Z 31016KT 06/01 A2992 RMK A01 T00620008  RH  068%=      5-min Rain = 0
KST3 050708Z 32017KT 06/01 A2992 RMK A01 T00620008  RH  068%=      5-min Rain = 0
KST3 050709Z 31016KT 06/01 A2992 RMK A01 T00620009  RH  068%=      5-min Rain = 0
KST3 050710Z 31018KT 06/01 A2991 RMK A01 T00620009  RH  069%=      5-min Rain = 0
KST3 050711Z 31017KT 06/01 A2991 RMK A01 T00620009  RH  069%=      5-min Rain = 0
KST3 050712Z 31018KT 06/01 A2991 RMK A01 T00620009  RH  069%=      5-min Rain = 0
KST3 050713Z 32017G22KT 06/01 A2991 RMK A01 T00620009  RH  069%=      5-min Rain = 0
KST3 050714Z 32017KT 06/01 A2991 RMK A01 T00630009  RH  069%=      5-min Rain = 0
KST3 050715Z 32018KT 06/01 A2991 RMK A01 T00620009  RH  069%=      5-min Rain = 0
KST3 050716Z 32018KT 06/01 A2991 RMK A01 T00620009  RH  069%=      5-min Rain = 0
KST3 050717Z 32016KT 06/01 A2991 RMK A01 T00630009  RH  069%=      5-min Rain = 0
KST3 050718Z 32019KT 06/01 A2991 RMK A01 T00620009  RH  069%=      5-min Rain = 0
KST3 050719Z 32015G20KT 06/01 A2991 RMK A01 T00620009  RH  069%=      5-min Rain = 0
KST3 050720Z 32017G22KT 06/01 A2991 RMK A01 T00610009  RH  069%=      5-min Rain = 0
KST3 050721Z 32019KT 06/01 A2991 RMK A01 T00610010  RH  069%=      5-min Rain = 0
KST3 050722Z 32018KT 06/01 A2991 RMK A01 T00620010  RH  069%=      5-min Rain = 0
KST3 050723Z 32017KT 06/01 A2991 RMK A01 T00620010  RH  069%=      5-min Rain = 0
KST3 050724Z 32020G25KT 06/01 A2991 RMK A01 T00620010  RH  070%=      5-min Rain = 0
KST3 050725Z 32019KT 06/01 A2991 RMK A01 T00620011  RH  070%=      5-min Rain = 0
KST3 050726Z 32020KT 06/01 A2991 RMK A01 T00620011  RH  070%=      5-min Rain = 0
KST3 050727Z 32018KT 06/01 A2991 RMK A01 T00620011  RH  070%=      5-min Rain = 0
KST3 050728Z 32019KT 06/01 A2991 RMK A01 T00620011  RH  070%=      5-min Rain = 0
KST3 050729Z 32017G22KT 06/01 A2991 RMK A01 T00620012  RH  070%=      5-min Rain = 0
KST3 050730Z 32017KT 06/01 A2991 RMK A01 T00620011  RH  070%=      5-min Rain = 0
KST3 050731Z 32018KT 06/01 A2991 RMK A01 T00620011  RH  070%=      5-min Rain = 0
KST3 050732Z 32018KT 06/01 A2991 RMK A01 T00620012  RH  070%=      5-min Rain = 0
KST3 050733Z 32018KT 06/01 A2991 RMK A01 T00620012  RH  070%=      5-min Rain = 0
KST3 050734Z 32018KT 06/01 A2991 RMK A01 T00620012  RH  070%=      5-min Rain = 0
KST3 050735Z 31018KT 06/01 A2991 RMK A01 T00620012  RH  070%=      5-min Rain = 0
KST3 050736Z 31019KT 06/01 A2991 RMK A01 T00620012  RH  070%=      5-min Rain = 0
KST3 050737Z 31016KT 06/01 A2991 RMK A01 T00620012  RH  070%=      5-min Rain = 0
KST3 050738Z 31016G21KT 06/01 A2991 RMK A01 T00610012  RH  071%=      5-min Rain = 0
KST3 050739Z 31017KT 06/01 A2991 RMK A01 T00610012  RH  071%=      5-min Rain = 0
KST3 050740Z 32017KT 06/01 A2991 RMK A01 T00610012  RH  071%=      5-min Rain = 0
KST3 050741Z 32018KT 06/01 A2991 RMK A01 T00610013  RH  071%=      5-min Rain = 0
KST3 050742Z 32019G24KT 06/01 A2991 RMK A01 T00610013  RH  071%=      5-min Rain = 0
KST3 050743Z 32019KT 06/01 A2991 RMK A01 T00610013  RH  071%=      5-min Rain = 0
KST3 050744Z 31018KT 06/01 A2991 RMK A01 T00620014  RH  071%=      5-min Rain = 0
KST3 050745Z 31016KT 06/01 A2991 RMK A01 T00620013  RH  071%=      5-min Rain = 0
KST3 050746Z 31017KT 06/01 A2991 RMK A01 T00610013  RH  071%=      5-min Rain = 0
KST3 050747Z 31017KT 06/01 A2991 RMK A01 T00610013  RH  071%=      5-min Rain = 0
KST3 050748Z 31016KT 06/01 A2991 RMK A01 T00610013  RH  071%=      5-min Rain = 0
KST3 050749Z 31016KT 06/01 A2991 RMK A01 T00600013  RH  072%=      5-min Rain = 0
KST3 050750Z 30016G21KT 06/01 A2991 RMK A01 T00600013  RH  072%=      5-min Rain = 0
KST3 050751Z 31015KT 06/01 A2991 RMK A01 T00600013  RH  072%=      5-min Rain = 0
KST3 050752Z 31015G21KT 06/01 A2992 RMK A01 T00600013  RH  072%=      5-min Rain = 0
KST3 050753Z 31015G20KT 06/01 A2992 RMK A01 T00590013  RH  072%=      5-min Rain = 0
KST3 050754Z 31016G21KT 06/01 A2992 RMK A01 T00590013  RH  072%=      5-min Rain = 0
KST3 050755Z 31017KT 06/01 A2992 RMK A01 T00590013  RH  072%=      5-min Rain = 0
KST3 050756Z 31016KT 06/01 A2992 RMK A01 T00590014  RH  072%=      5-min Rain = 0
KST3 050757Z 31015KT 06/01 A2992 RMK A01 T00590013  RH  072%=      5-min Rain = 0
KST3 050758Z 31015KT 06/01 A2991 RMK A01 T00590013  RH  073%=      5-min Rain = 0
KST3 050759Z 31016G21KT 06/01 A2991 RMK A01 T00580014  RH  073%=      5-min Rain = 0
KST3 050800Z 31014KT 06/01 A2991 RMK A01 T00580014  RH  073%=      5-min Rain = 0
KST3 050801Z 31017KT 06/01 A2991 RMK A01 T00580014  RH  073%=      5-min Rain = 0
KST3 050802Z 31017KT 06/01 A2991 RMK A01 T00580014  RH  073%=      5-min Rain = 0
KST3 050803Z 31017KT 06/01 A2991 RMK A01 T00580014  RH  073%=      5-min Rain = 0
KST3 050804Z 31017KT 06/01 A2991 RMK A01 T00580014  RH  073%=      5-min Rain = 0
KST3 050805Z 31018KT 06/01 A2991 RMK A01 T00580014  RH  073%=      5-min Rain = 0
KST3 050806Z 31017G22KT 06/02 A2991 RMK A01 T00580015  RH  074%=      5-min Rain = 0
KST3 050807Z 30016KT 06/02 A2991 RMK A01 T00580015  RH  074%=      5-min Rain = 0
KST3 050808Z 30015KT 06/02 A2991 RMK A01 T00580015  RH  074%=      5-min Rain = 0
KST3 050809Z 30018KT 06/02 A2991 RMK A01 T00580015  RH  074%=      5-min Rain = 0
KST3 050810Z 30017KT 06/02 A2991 RMK A01 T00580015  RH  074%=      5-min Rain = 0
KST3 050811Z 30018KT 06/02 A2991 RMK A01 T00580015  RH  074%=      5-min Rain = 0
KST3 050812Z 30016KT 06/02 A2991 RMK A01 T00580015  RH  074%=      5-min Rain = 0
KST3 050813Z 30016KT 06/02 A2991 RMK A01 T00580015  RH  074%=      5-min Rain = 0
KST3 050814Z 30016KT 06/02 A2991 RMK A01 T00580015  RH  074%=      5-min Rain = 0
KST3 050815Z 30017KT 06/02 A2991 RMK A01 T00570015  RH  074%=      5-min Rain = 0
KST3 050816Z 30015KT 06/02 A2991 RMK A01 T00570015  RH  074%=      5-min Rain = 0
KST3 050817Z 30016G21KT 06/02 A2991 RMK A01 T00570015  RH  074%=      5-min Rain = 0
KST3 050818Z 31015KT 06/02 A2991 RMK A01 T00560015  RH  075%=      5-min Rain = 0
KST3 050819Z 30015KT 06/02 A2991 RMK A01 T00560015  RH  075%=      5-min Rain = 0
KST3 050820Z 30013KT 06/02 A2991 RMK A01 T00560015  RH  075%=      5-min Rain = 0
KST3 050821Z 30015KT 06/01 A2991 RMK A01 T00560014  RH  075%=      5-min Rain = 0
KST3 050822Z 30013KT 06/02 A2992 RMK A01 T00550015  RH  075%=      5-min Rain = 0
KST3 050823Z 31013KT 06/01 A2992 RMK A01 T00550014  RH  075%=      5-min Rain = 0
KST3 050824Z 31014KT 06/02 A2992 RMK A01 T00550015  RH  075%=      5-min Rain = 0
KST3 050825Z 31015KT 06/02 A2992 RMK A01 T00550015  RH  076%=      5-min Rain = 0
KST3 050826Z 31015KT 06/02 A2992 RMK A01 T00550015  RH  075%=      5-min Rain = 0
KST3 050827Z 31014KT 05/01 A2992 RMK A01 T00540014  RH  076%=      5-min Rain = 0
KST3 050828Z 31015KT 05/01 A2992 RMK A01 T00540014  RH  076%=      5-min Rain = 0
KST3 050829Z 31015KT 05/02 A2992 RMK A01 T00540015  RH  076%=      5-min Rain = 0
KST3 050830Z 31016KT 05/02 A2992 RMK A01 T00530015  RH  076%=      5-min Rain = 0
KST3 050831Z 31016KT 05/02 A2992 RMK A01 T00530015  RH  076%=      5-min Rain = 0
KST3 050832Z 31014G19KT 05/02 A2992 RMK A01 T00530015  RH  076%=      5-min Rain = 0
KST3 050833Z 31016KT 05/02 A2992 RMK A01 T00530015  RH  076%=      5-min Rain = 0
KST3 050834Z 31017KT 05/02 A2992 RMK A01 T00530015  RH  077%=      5-min Rain = 0
KST3 050835Z 31017KT 05/02 A2992 RMK A01 T00540016  RH  077%=      5-min Rain = 0
KST3 050836Z 32016KT 05/02 A2992 RMK A01 T00540017  RH  077%=      5-min Rain = 0
KST3 050837Z 32016KT 05/02 A2992 RMK A01 T00540017  RH  077%=      5-min Rain = 0
KST3 050838Z 32017KT 05/02 A2992 RMK A01 T00540017  RH  077%=      5-min Rain = 0
KST3 050839Z 32016KT 05/02 A2992 RMK A01 T00540018  RH  078%=      5-min Rain = 0
KST3 050840Z 32015KT 05/02 A2992 RMK A01 T00530017  RH  077%=      5-min Rain = 0
KST3 050841Z 32017G22KT 05/02 A2992 RMK A01 T00530017  RH  078%=      5-min Rain = 0
KST3 050842Z 32018KT 05/02 A2992 RMK A01 T00520019  RH  079%=      5-min Rain = 0
KST3 050843Z 32017KT 05/02 A2992 RMK A01 T00530020  RH  079%=      5-min Rain = 0
KST3 050844Z 32017KT 05/02 A2992 RMK A01 T00530019  RH  079%=      5-min Rain = 0
KST3 050845Z 33017KT 05/02 A2992 RMK A01 T00530020  RH  079%=      5-min Rain = 0
KST3 050846Z 32018KT 05/02 A2992 RMK A01 T00530021  RH  080%=      5-min Rain = 0
KST3 050847Z 33018KT 05/02 A2992 RMK A01 T00530022  RH  080%=      5-min Rain = 0
KST3 050848Z 32017G22KT 05/02 A2992 RMK A01 T00540023  RH  081%=      5-min Rain = 0
KST3 050849Z 33017G23KT 05/02 A2992 RMK A01 T00540024  RH  081%=      5-min Rain = 0
KST3 050850Z 32018KT 05/03 A2992 RMK A01 T00540025  RH  082%=      5-min Rain = 0
KST3 050851Z 33019KT 05/03 A2992 RMK A01 T00540025  RH  082%=      5-min Rain = 0
KST3 050852Z 33018KT 05/03 A2992 RMK A01 T00540026  RH  082%=      5-min Rain = 0
KST3 050853Z 33016KT 05/03 A2992 RMK A01 T00540026  RH  082%=      5-min Rain = 0
KST3 050854Z 33018KT 05/03 A2992 RMK A01 T00540027  RH  083%=      5-min Rain = 0
KST3 050855Z 33016KT 06/03 A2992 RMK A01 T00550028  RH  083%=      5-min Rain = 0
KST3 050856Z 32016KT 06/03 A2992 RMK A01 T00550028  RH  083%=      5-min Rain = 0
KST3 050857Z 33015G20KT 06/03 A2992 RMK A01 T00550029  RH  083%=      5-min Rain = 0
KST3 050858Z 33018KT 06/03 A2992 RMK A01 T00550030  RH  084%=      5-min Rain = 0
KST3 050859Z 33017KT 06/03 A2992 RMK A01 T00550030  RH  084%=      5-min Rain = 0
KST3 050900Z 32016KT 06/03 A2992 RMK A01 T00560031  RH  084%=      5-min Rain = 0
KST3 050901Z 32017KT 06/03 A2992 RMK A01 T00560030  RH  084%=      5-min Rain = 0
KST3 050902Z 32016KT 06/03 A2992 RMK A01 T00560031  RH  084%=      5-min Rain = 0
KST3 050903Z 32017KT 06/03 A2992 RMK A01 T00560031  RH  084%=      5-min Rain = 0
KST3 050904Z 33018KT 06/03 A2992 RMK A01 T00560032  RH  084%=      5-min Rain = 0
KST3 050905Z 32021G27KT 06/03 A2992 RMK A01 T00560032  RH  085%=      5-min Rain = 0
KST3 050906Z 33021G26KT 06/03 A2992 RMK A01 T00570034  RH  085%=      5-min Rain = 0
KST3 050907Z 33018KT 06/04 A2992 RMK A01 T00590036  RH  085%=      5-min Rain = 0
KST3 050908Z 33017KT 06/04 A2992 RMK A01 T00590036  RH  085%=      5-min Rain = 0
KST3 050909Z 33017KT 06/04 A2992 RMK A01 T00600036  RH  085%=      5-min Rain = 0
KST3 050910Z 33018KT 06/04 A2992 RMK A01 T00600036  RH  084%=      5-min Rain = 0
KST3 050911Z 33017KT 06/04 A2992 RMK A01 T00600036  RH  084%=      5-min Rain = 0
KST3 050912Z 33019KT 06/04 A2993 RMK A01 T00610035  RH  084%=      5-min Rain = 0
KST3 050913Z 33019KT 06/04 A2993 RMK A01 T00610036  RH  084%=      5-min Rain = 0
KST3 050914Z 34022G27KT 06/04 A2993 RMK A01 T00620037  RH  084%=      5-min Rain = 0
KST3 050915Z 33021KT 06/04 A2992 RMK A01 T00630038  RH  084%=      5-min Rain = 0
KST3 050916Z 33021G26KT 06/04 A2992 RMK A01 T00630038  RH  084%=      5-min Rain = 0
KST3 050917Z 34021KT 06/04 A2993 RMK A01 T00630039  RH  085%=      5-min Rain = 0
KST3 050918Z 34020KT 06/04 A2993 RMK A01 T00620039  RH  085%=      5-min Rain = 0
KST3 050919Z 34021KT 06/04 A2993 RMK A01 T00630041  RH  086%=      5-min Rain = 0
KST3 050920Z 34017KT 06/04 A2993 RMK A01 T00630041  RH  086%=      5-min Rain = 0
KST3 050921Z 34019KT 06/04 A2993 RMK A01 T00620041  RH  086%=      5-min Rain = 0
KST3 050922Z 33019G25KT 06/04 A2993 RMK A01 T00610042  RH  087%=      5-min Rain = 0
KST3 050923Z 34021KT 06/04 A2993 RMK A01 T00620043  RH  087%=      5-min Rain = 0
KST3 050924Z 34017G22KT 06/04 A2993 RMK A01 T00620044  RH  088%=      5-min Rain = 0
KST3 050925Z 34016KT 06/04 A2993 RMK A01 T00630044  RH  088%=      5-min Rain = 0
KST3 050926Z 34015KT 06/04 A2993 RMK A01 T00620044  RH  088%=      5-min Rain = 0
KST3 050927Z 34016KT 06/04 A2993 RMK A01 T00620044  RH  088%=      5-min Rain = 0
KST3 050928Z 33015G21KT 06/04 A2993 RMK A01 T00610044  RH  089%=      5-min Rain = 0
KST3 050929Z 34017KT 06/04 A2993 RMK A01 T00610044  RH  089%=      5-min Rain = 0
KST3 050930Z 34015KT 06/04 A2993 RMK A01 T00610044  RH  089%=      5-min Rain = 0
KST3 050931Z 34014KT 06/05 A2993 RMK A01 T00610045  RH  090%=      5-min Rain = 0
KST3 050932Z 34015KT 06/05 A2993 RMK A01 T00600045  RH  090%=      5-min Rain = 0
KST3 050933Z 34015KT 06/05 A2994 RMK A01 T00600045  RH  090%=      5-min Rain = 0
KST3 050934Z 35015KT 06/05 A2994 RMK A01 T00600046  RH  091%=      5-min Rain = 0
KST3 050935Z 34013KT 06/05 A2994 RMK A01 T00590045  RH  091%=      5-min Rain = 0
KST3 050936Z 34012KT 06/05 A2994 RMK A01 T00590045  RH  091%=      5-min Rain = 0
KST3 050937Z 34014KT 06/05 A2994 RMK A01 T00590045  RH  091%=      5-min Rain = 0
KST3 050938Z 34014KT 06/05 A2994 RMK A01 T00580046  RH  091%=      5-min Rain = 0
KST3 050939Z 35014KT 06/05 A2994 RMK A01 T00580046  RH  092%=      5-min Rain = 0
KST3 050940Z 35013KT 06/05 A2994 RMK A01 T00580045  RH  091%=      5-min Rain = 0
KST3 050941Z 35013KT 06/05 A2994 RMK A01 T00580046  RH  092%=      5-min Rain = 0
KST3 050942Z 35013KT 06/05 A2994 RMK A01 T00580046  RH  092%=      5-min Rain = 0
KST3 050943Z 35011KT 06/05 A2994 RMK A01 T00580046  RH  092%=      5-min Rain = 0
KST3 050944Z 35012KT 06/05 A2995 RMK A01 T00580046  RH  092%=      5-min Rain = 0
KST3 050945Z 35013KT 06/05 A2995 RMK A01 T00570046  RH  093%=      5-min Rain = 0
KST3 050946Z 36013KT 06/05 A2995 RMK A01 T00570047  RH  093%=      5-min Rain = 0
KST3 050947Z 36013KT 06/05 A2995 RMK A01 T00570048  RH  093%=      5-min Rain = 0
KST3 050948Z 36012KT 06/05 A2995 RMK A01 T00580048  RH  093%=      5-min Rain = 0
KST3 050949Z 36013KT 06/05 A2995 RMK A01 T00590049  RH  093%=      5-min Rain = 0
KST3 050950Z 35014KT 06/05 A2995 RMK A01 T00590049  RH  093%=      5-min Rain = 0
KST3 050951Z 35015KT 06/05 A2995 RMK A01 T00590049  RH  093%=      5-min Rain = 0
KST3 050952Z 00015KT 06/05 A2995 RMK A01 T00600049  RH  093%=      5-min Rain = 0
KST3 050953Z 35013KT 06/05 A2995 RMK A01 T00600048  RH  092%=      5-min Rain = 0
KST3 050954Z 35018KT 06/05 A2995 RMK A01 T00600048  RH  093%=      5-min Rain = 0
KST3 050955Z 34017KT 06/05 A2995 RMK A01 T00600049  RH  093%=      5-min Rain = 0
KST3 050956Z 34018KT 06/05 A2995 RMK A01 T00600049  RH  093%=      5-min Rain = 0
KST3 050957Z 34018KT 06/05 A2995 RMK A01 T00600049  RH  093%=      5-min Rain = 0
KST3 050958Z 34014KT 06/05 A2995 RMK A01 T00600049  RH  093%=      5-min Rain = 0
KST3 050959Z 35015KT 06/05 A2995 RMK A01 T00600049  RH  093%=      5-min Rain = 0
KST3 051000Z 35015KT 06/05 A2995 RMK A01 T00590048  RH  093%=      5-min Rain = 0
KST3 051001Z 35015KT 06/05 A2995 RMK A01 T00590049  RH  093%=      5-min Rain = 0
KST3 051002Z 34015KT 06/05 A2995 RMK A01 T00580049  RH  094%=      5-min Rain = 0
KST3 051003Z 35015KT 06/05 A2995 RMK A01 T00580049  RH  094%=      5-min Rain = 0
KST3 051004Z 34017KT 06/05 A2995 RMK A01 T00580049  RH  094%=      5-min Rain = 0
KST3 051005Z 35016KT 06/05 A2995 RMK A01 T00570050  RH  095%=      5-min Rain = 0
KST3 051006Z 35013KT 06/05 A2995 RMK A01 T00570050  RH  095%=      5-min Rain = 0
KST3 051007Z 35014G19KT 06/05 A2995 RMK A01 T00570050  RH  095%=      5-min Rain = 0
KST3 051008Z 35013KT 06/05 A2995 RMK A01 T00570050  RH  095%=      5-min Rain = 0
KST3 051009Z 35013KT 06/05 A2995 RMK A01 T00560049  RH  095%=      5-min Rain = 0
KST3 051010Z 35016KT 06/05 A2995 RMK A01 T00550049  RH  096%=      5-min Rain = 0
KST3 051011Z 35013KT 06/05 A2995 RMK A01 T00550049  RH  096%=      5-min Rain = 0
KST3 051012Z 36012KT 05/05 A2996 RMK A01 T00540049  RH  097%=      5-min Rain = 0
KST3 051013Z 35013KT 05/05 A2996 RMK A01 T00530049  RH  097%=      5-min Rain = 0
KST3 051014Z 36014KT 05/05 A2996 RMK A01 T00530048  RH  097%=      5-min Rain = 0
KST3 051015Z 36016KT 05/05 A2996 RMK A01 T00520049  RH  098%=      5-min Rain = 0
KST3 051016Z 36016KT 05/05 A2996 RMK A01 T00520050  RH  098%=      5-min Rain = 0
KST3 051017Z 35015KT 05/05 A2996 RMK A01 T00520050  RH  098%=      5-min Rain = 0
KST3 051018Z 35015KT 05/05 A2996 RMK A01 T00520050  RH  099%=      5-min Rain = 0
KST3 051019Z 35015KT 05/05 A2996 RMK A01 T00520050  RH  099%=      5-min Rain = 0
KST3 051020Z 35015KT 05/05 A2996 RMK A01 T00520050  RH  099%=      5-min Rain = 0
KST3 051021Z 35013KT 05/05 A2996 RMK A01 T00520050  RH  099%=      5-min Rain = 0
KST3 051022Z 35014KT 05/05 A2996 RMK A01 T00520050  RH  099%=      5-min Rain = 0
KST3 051023Z 35014KT 05/05 A2996 RMK A01 T00520050  RH  099%=      5-min Rain = 0
KST3 051024Z 36013KT 05/05 A2996 RMK A01 T00510049  RH  099%=      5-min Rain = 0
KST3 051025Z 35013KT 05/05 A2996 RMK A01 T00510049  RH  099%=      5-min Rain = 0
KST3 051026Z 35012KT 05/05 A2996 RMK A01 T00500049  RH  099%=      5-min Rain = 0
KST3 051027Z 35014KT 05/05 A2996 RMK A01 T00500049  RH  099%=      5-min Rain = 0
KST3 051028Z 34013KT 05/05 A2996 RMK A01 T00500049  RH  100%=      5-min Rain = 0
KST3 051029Z 35013KT 05/05 A2996 RMK A01 T00500049  RH  100%=      5-min Rain = 0
KST3 051030Z 34013KT 05/05 A2996 RMK A01 T00500050  RH  100%=      5-min Rain = 0
KST3 051031Z 35013KT 05/05 A2996 RMK A01 T00500049  RH  100%=      5-min Rain = 0
KST3 051032Z 35014KT 05/05 A2996 RMK A01 T00500050  RH  100%=      5-min Rain = 0
KST3 051033Z 35014KT 05/05 A2996 RMK A01 T00500049  RH  100%=      5-min Rain = 0
KST3 051034Z 35015KT 05/05 A2996 RMK A01 T00500050  RH  100%=      5-min Rain = 0
KST3 051035Z 35014KT 05/05 A2996 RMK A01 T00500049  RH  099%=      5-min Rain = 0
KST3 051036Z 36014KT 05/05 A2996 RMK A01 T00500048  RH  099%=      5-min Rain = 0
KST3 051037Z 36014KT 05/05 A2997 RMK A01 T00510048  RH  098%=      5-min Rain = 0
KST3 051038Z 36016KT 05/05 A2997 RMK A01 T00510048  RH  098%=      5-min Rain = 0
KST3 051039Z 36017KT 05/05 A2997 RMK A01 T00520048  RH  098%=      5-min Rain = 0
KST3 051040Z 00016KT 05/05 A2997 RMK A01 T00530048  RH  097%=      5-min Rain = 0
KST3 051041Z 36013KT 05/05 A2997 RMK A01 T00530048  RH  097%=      5-min Rain = 0
KST3 051042Z 35014KT 05/05 A2997 RMK A01 T00530048  RH  096%=      5-min Rain = 0
KST3 051043Z 36018KT 05/05 A2997 RMK A01 T00530048  RH  096%=      5-min Rain = 0
KST3 051044Z 36017KT 05/05 A2997 RMK A01 T00530047  RH  096%=      5-min Rain = 0
KST3 051045Z 00015KT 05/05 A2997 RMK A01 T00530046  RH  095%=      5-min Rain = 0
KST3 051046Z 00016KT 05/05 A2997 RMK A01 T00530046  RH  095%=      5-min Rain = 0
KST3 051047Z 00017KT 05/05 A2997 RMK A01 T00530045  RH  095%=      5-min Rain = 0
KST3 051048Z 00015KT 05/04 A2997 RMK A01 T00520044  RH  094%=      5-min Rain = 0
KST3 051049Z 35014KT 05/04 A2997 RMK A01 T00510043  RH  094%=      5-min Rain = 0
KST3 051050Z 34015KT 05/04 A2996 RMK A01 T00500043  RH  095%=      5-min Rain = 0
KST3 051051Z 34016KT 05/04 A2996 RMK A01 T00510044  RH  096%=      5-min Rain = 0
KST3 051052Z 34015KT 05/04 A2997 RMK A01 T00510044  RH  096%=      5-min Rain = 0
KST3 051053Z 34015KT 05/04 A2997 RMK A01 T00500043  RH  095%=      5-min Rain = 0
KST3 051054Z 35017KT 05/04 A2997 RMK A01 T00500043  RH  095%=      5-min Rain = 0
KST3 051055Z 36017KT 05/04 A2998 RMK A01 T00500043  RH  095%=      5-min Rain = 0
KST3 051056Z 00015KT 05/04 A2998 RMK A01 T00500042  RH  095%=      5-min Rain = 0
KST3 051057Z 00015KT 05/04 A2998 RMK A01 T00490041  RH  095%=      5-min Rain = 0
KST3 051058Z 00017KT 05/04 A2998 RMK A01 T00480040  RH  095%=      5-min Rain = 0
KST3 051059Z 35018KT 05/04 A2998 RMK A01 T00470038  RH  094%=      5-min Rain = 0
KST3 051100Z 35019KT 05/04 A2998 RMK A01 T00460037  RH  094%=      5-min Rain = 0
KST3 051101Z 34018KT 05/04 A2998 RMK A01 T00450035  RH  093%=      5-min Rain = 0
KST3 051102Z 35018KT 04/03 A2997 RMK A01 T00440033  RH  093%=      5-min Rain = 0
KST3 051103Z 35023G29KT 04/03 A2998 RMK A01 T00420030  RH  092%=      5-min Rain = 0
KST3 051104Z 36022KT 04/03 A2998 RMK A01 T00410028  RH  091%=      5-min Rain = 0
KST3 051105Z 01022G27KT 04/03 A2999 RMK A01 T00390026  RH  091%=      5-min Rain = 0
KST3 051106Z 01020G25KT 04/03 A2999 RMK A01 T00370025  RH  091%=      5-min Rain = 0
KST3 051107Z 36020KT 04/02 A2999 RMK A01 T00360024  RH  092%=      5-min Rain = 0
KST3 051108Z 36020KT 04/02 A2998 RMK A01 T00350024  RH  093%=      5-min Rain = 0
KST3 051109Z 35020KT 03/02 A2998 RMK A01 T00330024  RH  093%=      5-min Rain = 0
KST3 051110Z 36021KT 03/02 A2998 RMK A01 T00320023  RH  094%=      5-min Rain = 0
KST3 051111Z 01020G25KT 03/02 A2999 RMK A01 T00320023  RH  094%=      5-min Rain = 0
KST3 051112Z 01020KT 03/02 A2999 RMK A01 T00310023  RH  094%=      5-min Rain = 0
KST3 051113Z 00022KT 03/02 A2999 RMK A01 T00310023  RH  095%=      5-min Rain = 0
KST3 051114Z 36023KT 03/02 A2999 RMK A01 T00300023  RH  095%=      5-min Rain = 0
KST3 051115Z 35023G28KT 03/02 A2999 RMK A01 T00300023  RH  095%=      5-min Rain = 0
KST3 051116Z 36023KT 03/02 A2999 RMK A01 T00290022  RH  095%=      5-min Rain = 0
KST3 051117Z 01022KT 03/02 A30 RMK A01 T00300022  RH  095%=      5-min Rain = 0
KST3 051118Z 01021KT 03/02 A3001 RMK A01 T00290022  RH  095%=      5-min Rain = 0
KST3 051119Z 01021KT 03/02 A3001 RMK A01 T00290022  RH  095%=      5-min Rain = 0
KST3 051120Z 00020KT 03/02 A30 RMK A01 T00290022  RH  095%=      5-min Rain = 0
KST3 051121Z 36020KT 03/02 A30 RMK A01 T00290021  RH  095%=      5-min Rain = 0
KST3 051122Z 00021KT 03/02 A30 RMK A01 T00280021  RH  095%=      5-min Rain = 0
KST3 051123Z 01021KT 03/02 A3001 RMK A01 T00280022  RH  095%=      5-min Rain = 0
KST3 051124Z 01019KT 03/02 A3001 RMK A01 T00280022  RH  096%=      5-min Rain = 0
KST3 051125Z 01020KT 03/02 A3001 RMK A01 T00280022  RH  096%=      5-min Rain = 0
KST3 051126Z 01020KT 03/02 A3001 RMK A01 T00280022  RH  096%=      5-min Rain = 0
KST3 051127Z 01021KT 03/02 A3001 RMK A01 T00270021  RH  096%=      5-min Rain = 0
KST3 051128Z 01020KT 03/02 A3002 RMK A01 T00270021  RH  096%=      5-min Rain = 0
KST3 051129Z 01021KT 03/02 A3002 RMK A01 T00270021  RH  096%=      5-min Rain = 0
KST3 051130Z 01021KT 03/02 A3002 RMK A01 T00270021  RH  096%=      5-min Rain = 0
KST3 051131Z 01021KT 03/02 A3002 RMK A01 T00270021  RH  096%=      5-min Rain = 0
KST3 051132Z 01020KT 03/02 A3002 RMK A01 T00270021  RH  096%=      5-min Rain = 0
KST3 051133Z 01020KT 03/02 A3002 RMK A01 T00270021  RH  096%=      5-min Rain = 0
KST3 051134Z 01020G25KT 03/02 A3002 RMK A01 T00270021  RH  096%=      5-min Rain = 0
KST3 051135Z 01021KT 03/02 A3002 RMK A01 T00260021  RH  096%=      5-min Rain = 0
KST3 051136Z 01019KT 03/02 A3002 RMK A01 T00260021  RH  096%=      5-min Rain = 0
KST3 051137Z 01017KT 03/02 A3003 RMK A01 T00260021  RH  096%=      5-min Rain = 0
KST3 051138Z 01018KT 03/02 A3003 RMK A01 T00260021  RH  096%=      5-min Rain = 0
KST3 051139Z 01017KT 03/02 A3003 RMK A01 T00260021  RH  096%=      5-min Rain = 0
KST3 051140Z 01019KT 03/02 A3003 RMK A01 T00260021  RH  097%=      5-min Rain = 0
KST3 051141Z 00018KT 03/02 A3003 RMK A01 T00250021  RH  097%=      5-min Rain = 0
KST3 051142Z 00018KT 03/02 A3003 RMK A01 T00250020  RH  097%=      5-min Rain = 0
KST3 051143Z 00017KT 03/02 A3003 RMK A01 T00250020  RH  097%=      5-min Rain = 0
KST3 051144Z 01016KT 03/02 A3003 RMK A01 T00250020  RH  097%=      5-min Rain = 0
KST3 051145Z 01015KT 03/02 A3003 RMK A01 T00250020  RH  097%=      5-min Rain = 0
KST3 051146Z 00015KT 02/02 A3003 RMK A01 T00240020  RH  097%=      5-min Rain = 0
KST3 051147Z 01015KT 02/02 A3003 RMK A01 T00240020  RH  097%=      5-min Rain = 0
KST3 051148Z 00015KT 02/02 A3003 RMK A01 T00230020  RH  097%=      5-min Rain = 0
KST3 051149Z 01015KT 02/02 A3003 RMK A01 T00240020  RH  097%=      5-min Rain = 0
KST3 051150Z 01015KT 02/02 A3003 RMK A01 T00230020  RH  097%=      5-min Rain = 0
KST3 051151Z 01016KT 02/02 A3003 RMK A01 T00230020  RH  098%=      5-min Rain = 0
KST3 051152Z 01016KT 02/02 A3003 RMK A01 T00230020  RH  098%=      5-min Rain = 0
KST3 051153Z 00016KT 02/02 A3004 RMK A01 T00230020  RH  098%=      5-min Rain = 0
KST3 051154Z 01016KT 02/02 A3004 RMK A01 T00230019  RH  097%=      5-min Rain = 0
KST3 051155Z 01016KT 02/02 A3004 RMK A01 T00240020  RH  097%=      5-min Rain = 0
KST3 051156Z 01015KT 02/02 A3004 RMK A01 T00240020  RH  097%=      5-min Rain = 0
KST3 051157Z 00016KT 02/02 A3004 RMK A01 T00230019  RH  097%=      5-min Rain = 0
KST3 051158Z 01015KT 02/02 A3004 RMK A01 T00240020  RH  097%=      5-min Rain = 0
KST3 051159Z 00014KT 02/02 A3004 RMK A01 T00240020  RH  097%=      5-min Rain = 0
KST3 051200Z 00014KT 02/02 A3005 RMK A01 T00240020  RH  097%=      5-min Rain = 0
KST3 051201Z 00015KT 03/02 A3005 RMK A01 T00250021  RH  097%=      5-min Rain = 0
KST3 051202Z 00014KT 03/02 A3005 RMK A01 T00260021  RH  097%=      5-min Rain = 0
KST3 051203Z 00015KT 03/02 A3005 RMK A01 T00260022  RH  097%=      5-min Rain = 0
KST3 051204Z 00015KT 03/02 A3005 RMK A01 T00270022  RH  097%=      5-min Rain = 0
KST3 051205Z 00014KT 03/02 A3005 RMK A01 T00270022  RH  097%=      5-min Rain = 0
KST3 051206Z 36014KT 03/02 A3005 RMK A01 T00270022  RH  096%=      5-min Rain = 0
KST3 051207Z 36015KT 03/02 A3005 RMK A01 T00280022  RH  096%=      5-min Rain = 0
KST3 051208Z 36014KT 03/02 A3005 RMK A01 T00280023  RH  096%=      5-min Rain = 0
KST3 051209Z 36017KT 03/02 A3005 RMK A01 T00290023  RH  096%=      5-min Rain = 0
KST3 051210Z 00014KT 03/02 A3006 RMK A01 T00300023  RH  095%=      5-min Rain = 0
KST3 051211Z 00016KT 03/02 A3006 RMK A01 T00300023  RH  095%=      5-min Rain = 0
KST3 051212Z 00017KT 03/02 A3006 RMK A01 T00310024  RH  095%=      5-min Rain = 0
KST3 051213Z 01018KT 03/03 A3006 RMK A01 T00320025  RH  095%=      5-min Rain = 0
KST3 051214Z 01018KT 03/03 A3006 RMK A01 T00320026  RH  096%=      5-min Rain = 0
KST3 051215Z 01018KT 03/03 A3006 RMK A01 T00330028  RH  096%=      5-min Rain = 0
KST3 051216Z 01016KT 03/03 A3006 RMK A01 T00340029  RH  097%=      5-min Rain = 0
KST3 051217Z 01018KT 03/03 A3006 RMK A01 T00340030  RH  097%=      5-min Rain = 0
KST3 051218Z 01018KT 04/03 A3007 RMK A01 T00350032  RH  098%=      5-min Rain = 0
KST3 051219Z 01018KT 04/03 A3007 RMK A01 T00360034  RH  099%=      5-min Rain = 0
KST3 051220Z 01019KT 04/04 A3007 RMK A01 T00370036  RH  100%=      5-min Rain = 0
KST3 051221Z 01017KT 04/04 A3007 RMK A01 T00370037  RH  100%=      5-min Rain = 0
KST3 051222Z 01016KT 04/04 A3007 RMK A01 T00380038  RH  100%=      5-min Rain = 0
KST3 051223Z 01018KT 04/04 A3007 RMK A01 T00390039  RH  100%=      5-min Rain = 0
KST3 051224Z 01019KT 04/04 A3007 RMK A01 T00390039  RH  100%=      5-min Rain = 0
KST3 051225Z 01018KT 04/04 A3007 RMK A01 T00400040  RH  100%=      5-min Rain = 0
KST3 051226Z 01019KT 04/04 A3007 RMK A01 T00410041  RH  100%=      5-min Rain = 0
KST3 051227Z 01016KT 04/04 A3007 RMK A01 T00410041  RH  100%=      5-min Rain = 0
KST3 051228Z 01018KT 04/04 A3007 RMK A01 T00420041  RH  100%=      5-min Rain = 0
KST3 051229Z 01020KT 04/04 A3007 RMK A01 T00420042  RH  100%=      5-min Rain = 0
KST3 051230Z 01018KT 04/04 A3008 RMK A01 T00430043  RH  100%=      5-min Rain = 0
KST3 051231Z 01019KT 04/04 A3008 RMK A01 T00430043  RH  100%=      5-min Rain = 0
KST3 051232Z 01019G24KT 04/04 A3008 RMK A01 T00440044  RH  100%=      5-min Rain = 0
KST3 051233Z 01017G23KT 05/05 A3008 RMK A01 T00450045  RH  100%=      5-min Rain = 0
KST3 051234Z 01020G26KT 05/05 A3008 RMK A01 T00450045  RH  100%=      5-min Rain = 0
KST3 051235Z 01020KT 05/05 A3008 RMK A01 T00470047  RH  100%=      5-min Rain = 0
KST3 051236Z 01020KT 05/05 A3008 RMK A01 T00480048  RH  100%=      5-min Rain = 0
KST3 051237Z 01021KT 05/05 A3008 RMK A01 T00490049  RH  100%=      5-min Rain = 0
KST3 051238Z 01021KT 05/05 A3008 RMK A01 T00490049  RH  100%=      5-min Rain = 0
KST3 051239Z 01019KT 05/05 A3009 RMK A01 T00490049  RH  100%=      5-min Rain = 0
KST3 051240Z 01018KT 05/05 A3009 RMK A01 T00490049  RH  100%=      5-min Rain = 0
KST3 051241Z 01019KT 05/05 A3009 RMK A01 T00500050  RH  100%=      5-min Rain = 0
KST3 051242Z 01019G24KT 05/05 A3009 RMK A01 T00510051  RH  100%=      5-min Rain = 0
KST3 051243Z 01016KT 05/05 A3009 RMK A01 T00520052  RH  100%=      5-min Rain = 0
KST3 051244Z 01017KT 05/05 A3009 RMK A01 T00530053  RH  100%=      5-min Rain = 0
KST3 051245Z 01018KT 05/05 A3009 RMK A01 T00530053  RH  100%=      5-min Rain = 0
KST3 051246Z 01017KT 05/05 A3009 RMK A01 T00540054  RH  100%=      5-min Rain = 0
KST3 051247Z 01019KT 06/06 A3009 RMK A01 T00550055  RH  100%=      5-min Rain = 0
KST3 051248Z 01018KT 06/06 A3009 RMK A01 T00570057  RH  100%=      5-min Rain = 0
KST3 051249Z 02016KT 06/06 A3009 RMK A01 T00570057  RH  100%=      5-min Rain = 0
KST3 051250Z 02016KT 06/06 A3009 RMK A01 T00580058  RH  100%=      5-min Rain = 0
KST3 051251Z 01016G21KT 06/06 A3009 RMK A01 T00580058  RH  100%=      5-min Rain = 0
KST3 051252Z 01021KT 06/06 A3009 RMK A01 T00590059  RH  100%=      5-min Rain = 0
KST3 051253Z 01020KT 06/06 A3009 RMK A01 T00610061  RH  100%=      5-min Rain = 0
KST3 051254Z 01021KT 06/06 A3009 RMK A01 T00620062  RH  100%=      5-min Rain = 0
KST3 051255Z 01021KT 06/06 A3009 RMK A01 T00630063  RH  100%=      5-min Rain = 0
KST3 051256Z 02017KT 06/06 A3009 RMK A01 T00640064  RH  100%=      5-min Rain = 0
KST3 051257Z 01020KT 06/06 A301 RMK A01 T00640064  RH  100%=      5-min Rain = 0
KST3 051258Z 01019KT 07/06 A3009 RMK A01 T00650064  RH  100%=      5-min Rain = 0
KST3 051259Z 01020KT 07/07 A3009 RMK A01 T00660066  RH  100%=      5-min Rain = 0
KST3 051300Z 01019G24KT 07/07 A301 RMK A01 T00660066  RH  100%=      5-min Rain = 0
KST3 051301Z 01020KT 07/07 A301 RMK A01 T00670067  RH  100%=      5-min Rain = 0
KST3 051302Z 01021KT 07/07 A301 RMK A01 T00680068  RH  100%=      5-min Rain = 0
KST3 051303Z 01021KT 07/07 A301 RMK A01 T00680068  RH  100%=      5-min Rain = 0
KST3 051304Z 01021KT 07/07 A301 RMK A01 T00690068  RH  100%=      5-min Rain = 0
KST3 051305Z 01019KT 07/07 A301 RMK A01 T00690068  RH  099%=      5-min Rain = 0
KST3 051306Z 02018G23KT 07/07 A301 RMK A01 T00690067  RH  099%=      5-min Rain = 0
KST3 051307Z 02019KT 07/07 A301 RMK A01 T00700067  RH  098%=      5-min Rain = 0
KST3 051308Z 01018KT 07/07 A301 RMK A01 T00700067  RH  098%=      5-min Rain = 0
KST3 051309Z 01019KT 07/07 A301 RMK A01 T00700067  RH  098%=      5-min Rain = 0
KST3 051310Z 01020KT 07/07 A301 RMK A01 T00700067  RH  098%=      5-min Rain = 0
KST3 051311Z 02021KT 07/07 A301 RMK A01 T00690066  RH  098%=      5-min Rain = 0
KST3 051312Z 02021KT 07/07 A301 RMK A01 T00690066  RH  098%=      5-min Rain = 0
KST3 051313Z 02021KT 07/07 A3011 RMK A01 T00690066  RH  098%=      5-min Rain = 0
KST3 051314Z 02019KT 07/07 A3011 RMK A01 T00690065  RH  098%=      5-min Rain = 0
KST3 051315Z 02018KT 07/07 A3011 RMK A01 T00680065  RH  098%=      5-min Rain = 0
KST3 051316Z 02019KT 07/06 A3011 RMK A01 T00680064  RH  098%=      5-min Rain = 0
KST3 051317Z 02019KT 07/06 A3011 RMK A01 T00680063  RH  097%=      5-min Rain = 0
KST3 051318Z 01019KT 07/06 A3011 RMK A01 T00680062  RH  097%=      5-min Rain = 0
KST3 051319Z 01019KT 07/06 A3011 RMK A01 T00670061  RH  096%=      5-min Rain = 0
KST3 051320Z 01020KT 07/06 A3011 RMK A01 T00670060  RH  095%=      5-min Rain = 0
KST3 051321Z 01019KT 07/06 A3011 RMK A01 T00680060  RH  095%=      5-min Rain = 0
KST3 051322Z 01016KT 07/06 A3011 RMK A01 T00680060  RH  095%=      5-min Rain = 0
KST3 051323Z 01019KT 07/06 A3011 RMK A01 T00680061  RH  096%=      5-min Rain = 0
KST3 051324Z 01018KT 07/06 A3011 RMK A01 T00670062  RH  097%=      5-min Rain = 0
KST3 051325Z 01017KT 07/06 A3011 RMK A01 T00670063  RH  097%=      5-min Rain = 0
KST3 051326Z 01019KT 07/06 A3011 RMK A01 T00660064  RH  098%=      5-min Rain = 0
KST3 051327Z 01019KT 07/06 A3012 RMK A01 T00650064  RH  099%=      5-min Rain = 0
KST3 051328Z 01019KT 07/07 A3012 RMK A01 T00650065  RH  100%=      5-min Rain = 0
KST3 051329Z 01016G21KT 07/07 A3012 RMK A01 T00650065  RH  100%=      5-min Rain = 0
KST3 051330Z 01019KT 07/07 A3012 RMK A01 T00650065  RH  100%=      5-min Rain = 0
KST3 051331Z 01020KT 06/06 A3012 RMK A01 T00640064  RH  100%=      5-min Rain = 0
KST3 051332Z 01017G23KT 06/06 A3012 RMK A01 T00640064  RH  100%=      5-min Rain = 0
KST3 051333Z 01019KT 06/06 A3012 RMK A01 T00640064  RH  100%=      5-min Rain = 0
KST3 051334Z 00020KT 06/06 A3012 RMK A01 T00640064  RH  100%=      5-min Rain = 0
KST3 051335Z 01020KT 06/06 A3012 RMK A01 T00640064  RH  100%=      5-min Rain = 0
KST3 051336Z 00020KT 06/06 A3012 RMK A01 T00640064  RH  100%=      5-min Rain = 0
KST3 051337Z 00020KT 06/06 A3012 RMK A01 T00640064  RH  100%=      5-min Rain = 0
KST3 051338Z 00019KT 06/06 A3012 RMK A01 T00640064  RH  100%=      5-min Rain = 0
KST3 051339Z 00019KT 06/06 A3012 RMK A01 T00640064  RH  100%=      5-min Rain = 0
KST3 051340Z 00019KT 06/06 A3012 RMK A01 T00640064  RH  100%=      5-min Rain = 0
KST3 051341Z 36018KT 06/06 A3013 RMK A01 T00640064  RH  100%=      5-min Rain = 0
KST3 051342Z 00019KT 06/06 A3013 RMK A01 T00640064  RH  100%=      5-min Rain = 0
KST3 051343Z 00021KT 06/06 A3013 RMK A01 T00640064  RH  100%=      5-min Rain = 0
KST3 051344Z 00020KT 06/06 A3013 RMK A01 T00640064  RH  100%=      5-min Rain = 0
KST3 051345Z 00021KT 06/06 A3013 RMK A01 T00640064  RH  100%=      5-min Rain = 0
KST3 051346Z 00021KT 06/06 A3013 RMK A01 T00640064  RH  100%=      5-min Rain = 0
KST3 051347Z 01019KT 06/06 A3013 RMK A01 T00640064  RH  100%=      5-min Rain = 0
KST3 051348Z 00018KT 06/06 A3013 RMK A01 T00640064  RH  100%=      5-min Rain = 0
KST3 051349Z 00020KT 07/07 A3013 RMK A01 T00650065  RH  100%=      5-min Rain = 0
KST3 051350Z 00019KT 07/06 A3013 RMK A01 T00650064  RH  100%=      5-min Rain = 0
KST3 051351Z 00021KT 07/07 A3013 RMK A01 T00650065  RH  100%=      5-min Rain = 0
KST3 051352Z 00021KT 07/07 A3014 RMK A01 T00650065  RH  100%=      5-min Rain = 0
KST3 051353Z 00022KT 07/07 A3014 RMK A01 T00650065  RH  100%=      5-min Rain = 0
KST3 051354Z 36021KT 07/07 A3014 RMK A01 T00650065  RH  100%=      5-min Rain = 0
KST3 051355Z 00019KT 07/07 A3014 RMK A01 T00650065  RH  100%=      5-min Rain = 0
KST3 051356Z 00020KT 07/07 A3014 RMK A01 T00650065  RH  100%=      5-min Rain = 0
KST3 051357Z 36022KT 07/07 A3014 RMK A01 T00650065  RH  100%=      5-min Rain = 0
KST3 051358Z 36022KT 07/07 A3014 RMK A01 T00650065  RH  100%=      5-min Rain = 0
KST3 051359Z 36022KT 07/07 A3014 RMK A01 T00650065  RH  100%=      5-min Rain = 0
KST3 051400Z 00021KT 07/07 A3014 RMK A01 T00660066  RH  100%=      5-min Rain = 0
KST3 051401Z 36022G28KT 07/07 A3014 RMK A01 T00660066  RH  100%=      5-min Rain = 0
KST3 051402Z 00021G26KT 07/07 A3014 RMK A01 T00660066  RH  100%=      5-min Rain = 0
KST3 051403Z 36017KT 07/07 A3014 RMK A01 T00660066  RH  100%=      5-min Rain = 0
KST3 051404Z 36020G25KT 07/07 A3014 RMK A01 T00660066  RH  100%=      5-min Rain = 0
KST3 051405Z 00022KT 07/07 A3014 RMK A01 T00660066  RH  100%=      5-min Rain = 0
KST3 051406Z 36024G29KT 07/07 A3014 RMK A01 T00670067  RH  100%=      5-min Rain = 0
KST3 051407Z 00023KT 07/07 A3014 RMK A01 T00670067  RH  100%=      5-min Rain = 0
KST3 051408Z 36022KT 07/07 A3014 RMK A01 T00670067  RH  100%=      5-min Rain = 0
KST3 051409Z 36025KT 07/07 A3014 RMK A01 T00670067  RH  100%=      5-min Rain = 0
KST3 051410Z 36024KT 07/07 A3014 RMK A01 T00670067  RH  100%=      5-min Rain = 0
KST3 051411Z 36022KT 07/07 A3015 RMK A01 T00670067  RH  100%=      5-min Rain = 0
KST3 051412Z 36019KT 07/07 A3015 RMK A01 T00670066  RH  100%=      5-min Rain = 0
KST3 051413Z 00021G26KT 07/07 A3015 RMK A01 T00660066  RH  100%=      5-min Rain = 0
KST3 051414Z 36021KT 07/07 A3015 RMK A01 T00660066  RH  100%=      5-min Rain = 0
KST3 051415Z 36022KT 07/07 A3015 RMK A01 T00660066  RH  100%=      5-min Rain = 0
KST3 051416Z 36024G29KT 07/07 A3015 RMK A01 T00650065  RH  100%=      5-min Rain = 0
KST3 051417Z 36022G28KT 07/07 A3015 RMK A01 T00660066  RH  100%=      5-min Rain = 0
KST3 051418Z 36022G28KT 07/07 A3015 RMK A01 T00650065  RH  100%=      5-min Rain = 0
KST3 051419Z 36024G29KT 07/07 A3015 RMK A01 T00650065  RH  100%=      5-min Rain = 0
KST3 051420Z 36024G29KT 07/07 A3015 RMK A01 T00650065  RH  100%=      5-min Rain = 0
KST3 051421Z 36021G26KT 07/07 A3015 RMK A01 T00650065  RH  100%=      5-min Rain = 0
KST3 051422Z 36023KT 07/07 A3015 RMK A01 T00650065  RH  100%=      5-min Rain = 0
KST3 051423Z 36022KT 06/06 A3016 RMK A01 T00640064  RH  100%=      5-min Rain = 0
KST3 051424Z 35023KT 06/06 A3016 RMK A01 T00640064  RH  100%=      5-min Rain = 0
KST3 051425Z 35023KT 06/06 A3015 RMK A01 T00640064  RH  100%=      5-min Rain = 0
KST3 051426Z 36021KT 06/06 A3016 RMK A01 T00630063  RH  100%=      5-min Rain = 0
KST3 051427Z 35024KT 06/06 A3016 RMK A01 T00630063  RH  100%=      5-min Rain = 0
KST3 051428Z 36021KT 06/06 A3016 RMK A01 T00630063  RH  100%=      5-min Rain = 0
KST3 051429Z 36022KT 06/06 A3016 RMK A01 T00630063  RH  100%=      5-min Rain = 0
KST3 051430Z 36019KT 06/06 A3016 RMK A01 T00620062  RH  100%=      5-min Rain = 0
KST3 051431Z 36022KT 06/06 A3016 RMK A01 T00630063  RH  100%=      5-min Rain = 0
KST3 051432Z 36022KT 06/06 A3016 RMK A01 T00620062  RH  100%=      5-min Rain = 0
KST3 051433Z 36021KT 06/06 A3016 RMK A01 T00620062  RH  100%=      5-min Rain = 0
KST3 051434Z 36023KT 06/06 A3016 RMK A01 T00620062  RH  100%=      5-min Rain = 0
KST3 051435Z 36020KT 06/06 A3016 RMK A01 T00620062  RH  100%=      5-min Rain = 0
KST3 051436Z 36020KT 06/06 A3016 RMK A01 T00620062  RH  100%=      5-min Rain = 0
KST3 051437Z 36020KT 06/06 A3016 RMK A01 T00620062  RH  100%=      5-min Rain = 0
KST3 051438Z 36020G26KT 06/06 A3016 RMK A01 T00620062  RH  100%=      5-min Rain = 0
KST3 051439Z 00024KT 06/06 A3017 RMK A01 T00620062  RH  100%=      5-min Rain = 0
KST3 051440Z 00024KT 06/06 A3017 RMK A01 T00620062  RH  100%=      5-min Rain = 0
KST3 051441Z 36024KT 06/06 A3017 RMK A01 T00620062  RH  100%=      5-min Rain = 0
KST3 051442Z 36023G28KT 06/06 A3017 RMK A01 T00620062  RH  100%=      5-min Rain = 0
KST3 051443Z 00018G24KT 06/06 A3017 RMK A01 T00620062  RH  100%=      5-min Rain = 0
KST3 051444Z 00021KT 06/06 A3017 RMK A01 T00620062  RH  100%=      5-min Rain = 0
KST3 051445Z 00021KT 06/06 A3017 RMK A01 T00620062  RH  100%=      5-min Rain = 0
KST3 051446Z 00023KT 06/06 A3017 RMK A01 T00630062  RH  100%=      5-min Rain = 0
KST3 051447Z 00020KT 06/06 A3017 RMK A01 T00630063  RH  100%=      5-min Rain = 0
KST3 051448Z 00020G25KT 06/06 A3017 RMK A01 T00620062  RH  100%=      5-min Rain = 0
KST3 051449Z 36021KT 06/06 A3017 RMK A01 T00620062  RH  100%=      5-min Rain = 0
KST3 051450Z 00022G28KT 06/06 A3017 RMK A01 T00620062  RH  100%=      5-min Rain = 0
KST3 051451Z 00019G24KT 06/06 A3017 RMK A01 T00630063  RH  100%=      5-min Rain = 0
KST3 051452Z 00020KT 06/06 A3018 RMK A01 T00620062  RH  100%=      5-min Rain = 0
KST3 051453Z 01019KT 06/06 A3018 RMK A01 T00620062  RH  100%=      5-min Rain = 0
KST3 051454Z 01024KT 06/06 A3018 RMK A01 T00630062  RH  100%=      5-min Rain = 0
KST3 051455Z 01020KT 06/06 A3018 RMK A01 T00630062  RH  100%=      5-min Rain = 0
KST3 051456Z 01019KT 06/06 A3018 RMK A01 T00620062  RH  100%=      5-min Rain = 0
KST3 051457Z 01020KT 06/06 A3018 RMK A01 T00620062  RH  100%=      5-min Rain = 0
KST3 051458Z 01020KT 06/06 A3018 RMK A01 T00620062  RH  100%=      5-min Rain = 0
KST3 051459Z 01018KT 06/06 A3018 RMK A01 T00620062  RH  100%=      5-min Rain = 0
KST3 051500Z 01021KT 06/06 A3018 RMK A01 T00630063  RH  100%=      5-min Rain = 0
KST3 051501Z 02018KT 06/06 A3018 RMK A01 T00630063  RH  100%=      5-min Rain = 0
KST3 051502Z 01021KT 06/06 A3019 RMK A01 T00630063  RH  100%=      5-min Rain = 0
KST3 051503Z 02019KT 06/06 A3019 RMK A01 T00630063  RH  100%=      5-min Rain = 0
KST3 051504Z 01019KT 06/06 A3019 RMK A01 T00630063  RH  100%=      5-min Rain = 0
KST3 051505Z 01020KT 06/06 A3019 RMK A01 T00640063  RH  100%=      5-min Rain = 0
KST3 051506Z 02023KT 06/06 A3019 RMK A01 T00640064  RH  100%=      5-min Rain = 0
KST3 051507Z 02018KT 06/06 A3019 RMK A01 T00640064  RH  100%=      5-min Rain = 0
KST3 051508Z 02019KT 06/06 A3019 RMK A01 T00640064  RH  100%=      5-min Rain = 0
KST3 051509Z 02020KT 06/06 A3019 RMK A01 T00640064  RH  100%=      5-min Rain = 0
KST3 051510Z 02020KT 06/06 A3019 RMK A01 T00640064  RH  100%=      5-min Rain = 0
KST3 051511Z 02028KT 06/06 A302 RMK A01 T00640064  RH  100%=      5-min Rain = 0
KST3 051512Z 03025G30KT 06/06 A302 RMK A01 T00640064  RH  100%=      5-min Rain = 0
KST3 051513Z 03021KT 07/07 A302 RMK A01 T00650065  RH  100%=      5-min Rain = 0
KST3 051514Z 03019KT 07/07 A302 RMK A01 T00650065  RH  100%=      5-min Rain = 0
KST3 051515Z 03018G23KT 07/07 A302 RMK A01 T00660066  RH  100%=      5-min Rain = 0
KST3 051516Z 02018KT 07/07 A302 RMK A01 T00670067  RH  100%=      5-min Rain = 0
KST3 051517Z 03019KT 07/07 A302 RMK A01 T00670067  RH  100%=      5-min Rain = 0
KST3 051518Z 03018KT 07/07 A302 RMK A01 T00680068  RH  100%=      5-min Rain = 0
KST3 051519Z 03019G24KT 07/07 A302 RMK A01 T00680068  RH  100%=      5-min Rain = 0
KST3 051520Z 03020KT 07/07 A302 RMK A01 T00680068  RH  100%=      5-min Rain = 0
KST3 051521Z 03022G27KT 07/07 A302 RMK A01 T00690069  RH  100%=      5-min Rain = 0
KST3 051522Z 03019G24KT 07/07 A302 RMK A01 T00690069  RH  100%=      5-min Rain = 0
KST3 051523Z 02020G25KT 07/07 A302 RMK A01 T00690069  RH  100%=      5-min Rain = 0
KST3 051524Z 03021KT 07/07 A302 RMK A01 T00690069  RH  100%=      5-min Rain = 0
KST3 051525Z 02020KT 07/07 A302 RMK A01 T00700070  RH  100%=      5-min Rain = 0
KST3 051526Z 03023G28KT 07/07 A302 RMK A01 T00700070  RH  100%=      5-min Rain = 0
KST3 051527Z 02023KT 07/07 A302 RMK A01 T00710069  RH  099%=      5-min Rain = 0
KST3 051528Z 03021KT 07/07 A302 RMK A01 T00710068  RH  098%=      5-min Rain = 0
KST3 051529Z 03021KT 07/07 A3021 RMK A01 T00710067  RH  097%=      5-min Rain = 0
KST3 051530Z 02020KT 07/07 A3021 RMK A01 T00710065  RH  096%=      5-min Rain = 0
KST3 051531Z 03016KT 07/07 A3021 RMK A01 T00720068  RH  098%=      5-min Rain = 0
KST3 051532Z 03016KT 07/07 A3021 RMK A01 T00720071  RH  099%=      5-min Rain = 0
KST3 051533Z 03018G23KT 07/07 A3021 RMK A01 T00730071  RH  098%=      5-min Rain = 0
KST3 051534Z 03016KT 07/07 A3021 RMK A01 T00730067  RH  096%=      5-min Rain = 0
KST3 051535Z 03016KT 07/07 A3021 RMK A01 T00730068  RH  096%=      5-min Rain = 0
KST3 051536Z 03019G25KT 07/07 A3021 RMK A01 T00730067  RH  096%=      5-min Rain = 0
KST3 051537Z 03020KT 07/06 A3021 RMK A01 T00730060  RH  091%=      5-min Rain = 0
KST3 051538Z 03020KT 07/06 A3021 RMK A01 T00730055  RH  088%=      5-min Rain = 0
KST3 051539Z 03019KT 07/05 A3021 RMK A01 T00730054  RH  088%=      5-min Rain = 0
KST3 051540Z 03021KT 07/06 A3021 RMK A01 T00730056  RH  089%=      5-min Rain = 0
KST3 051541Z 03020KT 07/06 A3021 RMK A01 T00740057  RH  089%=      5-min Rain = 0
KST3 051542Z 03022KT 08/06 A3021 RMK A01 T00760060  RH  089%=      5-min Rain = 0
KST3 051543Z 03022KT 08/06 A3021 RMK A01 T00770059  RH  088%=      5-min Rain = 0
KST3 051544Z 03022G27KT 08/06 A3022 RMK A01 T00770062  RH  090%=      5-min Rain = 0
KST3 051545Z 03022KT 08/06 A3022 RMK A01 T00780059  RH  088%=      5-min Rain = 0
KST3 051546Z 03021KT 08/06 A3022 RMK A01 T00770059  RH  089%=      5-min Rain = 0
KST3 051547Z 03015KT 08/06 A3022 RMK A01 T00760062  RH  091%=      5-min Rain = 0
KST3 051548Z 03018G25KT 08/06 A3022 RMK A01 T00770063  RH  091%=      5-min Rain = 0
KST3 051549Z 02023KT 08/06 A3022 RMK A01 T00770061  RH  090%=      5-min Rain = 0
KST3 051550Z 03021KT 08/06 A3022 RMK A01 T00760060  RH  089%=      5-min Rain = 0
KST3 051551Z 03019G24KT 08/06 A3022 RMK A01 T00750060  RH  090%=      5-min Rain = 0
KST3 051552Z 03020KT 07/06 A3022 RMK A01 T00740060  RH  091%=      5-min Rain = 0
KST3 051553Z 03020KT 07/06 A3022 RMK A01 T00740060  RH  091%=      5-min Rain = 0
KST3 051554Z 03020G26KT 07/06 A3023 RMK A01 T00740061  RH  091%=      5-min Rain = 0
KST3 051555Z 03020KT 07/06 A3023 RMK A01 T00740058  RH  089%=      5-min Rain = 0
KST3 051556Z 03019KT 07/06 A3023 RMK A01 T00740059  RH  090%=      5-min Rain = 0
KST3 051557Z 03018KT 08/06 A3023 RMK A01 T00750059  RH  090%=      5-min Rain = 0
KST3 051558Z 04018KT 08/06 A3023 RMK A01 T00750058  RH  089%=      5-min Rain = 0
KST3 051559Z 03018KT 08/06 A3023 RMK A01 T00750059  RH  090%=      5-min Rain = 0
KST3 051600Z 03017KT 08/06 A3023 RMK A01 T00750061  RH  091%=      5-min Rain = 0
KST3 051601Z 03020KT 08/06 A3023 RMK A01 T00750060  RH  090%=      5-min Rain = 0
KST3 051602Z 03019KT 07/06 A3023 RMK A01 T00740058  RH  090%=      5-min Rain = 0
KST3 051603Z 03017KT 07/06 A3023 RMK A01 T00740058  RH  089%=      5-min Rain = 0
KST3 051604Z 02019KT 07/06 A3023 RMK A01 T00740058  RH  090%=      5-min Rain = 0
KST3 051605Z 02023KT 07/06 A3023 RMK A01 T00740058  RH  090%=      5-min Rain = 0
KST3 051606Z 03024KT 07/05 A3024 RMK A01 T00730054  RH  088%=      5-min Rain = 0
KST3 051607Z 03022G27KT 07/05 A3024 RMK A01 T00720053  RH  088%=      5-min Rain = 0
KST3 051608Z 03022KT 07/05 A3024 RMK A01 T00720054  RH  088%=      5-min Rain = 0
KST3 051609Z 03020KT 07/05 A3024 RMK A01 T00720053  RH  088%=      5-min Rain = 0
KST3 051610Z 03020KT 07/05 A3024 RMK A01 T00710051  RH  087%=      5-min Rain = 0
KST3 051611Z 04020KT 07/05 A3024 RMK A01 T00710051  RH  087%=      5-min Rain = 0
KST3 051612Z 04019KT 07/05 A3024 RMK A01 T00710053  RH  088%=      5-min Rain = 0
KST3 051613Z 03017KT 07/05 A3024 RMK A01 T00710054  RH  089%=      5-min Rain = 0
KST3 051614Z 04015KT 07/06 A3024 RMK A01 T00710055  RH  090%=      5-min Rain = 0
KST3 051615Z 03018KT 07/06 A3024 RMK A01 T00710056  RH  090%=      5-min Rain = 0
KST3 051616Z 03015KT 07/06 A3024 RMK A01 T00710055  RH  089%=      5-min Rain = 0
KST3 051617Z 04015KT 07/06 A3024 RMK A01 T00720057  RH  090%=      5-min Rain = 0
KST3 051618Z 04019KT 07/06 A3024 RMK A01 T00720055  RH  089%=      5-min Rain = 0
KST3 051619Z 04019KT 07/05 A3024 RMK A01 T00710053  RH  088%=      5-min Rain = 0
KST3 051620Z 04019KT 07/05 A3024 RMK A01 T00710052  RH  088%=      5-min Rain = 0
KST3 051621Z 04019KT 07/05 A3024 RMK A01 T00710053  RH  089%=      5-min Rain = 0
KST3 051622Z 03018KT 07/05 A3024 RMK A01 T00710054  RH  089%=      5-min Rain = 0
KST3 051623Z 04017KT 07/06 A3024 RMK A01 T00710055  RH  090%=      5-min Rain = 0
KST3 051624Z 03018KT 07/06 A3024 RMK A01 T00710055  RH  089%=      5-min Rain = 0
KST3 051625Z 03014KT 07/06 A3024 RMK A01 T00710056  RH  090%=      5-min Rain = 0
KST3 051626Z 03018KT 07/06 A3024 RMK A01 T00720056  RH  090%=      5-min Rain = 0
KST3 051627Z 03018KT 07/06 A3024 RMK A01 T00720055  RH  089%=      5-min Rain = 0
KST3 051628Z 03016KT 07/06 A3024 RMK A01 T00710056  RH  090%=      5-min Rain = 0
KST3 051629Z 03016KT 07/06 A3024 RMK A01 T00720057  RH  090%=      5-min Rain = 0
KST3 051630Z 04017KT 07/06 A3024 RMK A01 T00710056  RH  090%=      5-min Rain = 0
KST3 051631Z 03018KT 07/06 A3024 RMK A01 T00710056  RH  090%=      5-min Rain = 0
KST3 051632Z 03015KT 07/06 A3024 RMK A01 T00710057  RH  090%=      5-min Rain = 0
KST3 051633Z 04016KT 07/06 A3024 RMK A01 T00720057  RH  090%=      5-min Rain = 0
KST3 051634Z 03015KT 07/06 A3024 RMK A01 T00710057  RH  091%=      5-min Rain = 0
KST3 051635Z 03016KT 07/06 A3024 RMK A01 T00720058  RH  091%=      5-min Rain = 0
KST3 051636Z 03015KT 07/06 A3024 RMK A01 T00720059  RH  091%=      5-min Rain = 0
KST3 051637Z 03016G21KT 07/06 A3024 RMK A01 T00720058  RH  091%=      5-min Rain = 0
KST3 051638Z 03018KT 07/06 A3024 RMK A01 T00730058  RH  090%=      5-min Rain = 0
KST3 051639Z 03016G23KT 07/06 A3024 RMK A01 T00730058  RH  090%=      5-min Rain = 0
KST3 051640Z 03018KT 07/06 A3024 RMK A01 T00730057  RH  089%=      5-min Rain = 0
KST3 051641Z 03015G20KT 07/06 A3024 RMK A01 T00740058  RH  090%=      5-min Rain = 0
KST3 051642Z 03017KT 07/06 A3024 RMK A01 T00730058  RH  090%=      5-min Rain = 0
KST3 051643Z 03017KT 07/06 A3025 RMK A01 T00730057  RH  090%=      5-min Rain = 0
KST3 051644Z 03014KT 07/06 A3025 RMK A01 T00730058  RH  090%=      5-min Rain = 0
KST3 051645Z 03012KT 07/06 A3025 RMK A01 T00730060  RH  092%=      5-min Rain = 0
KST3 051646Z 03012KT 07/06 A3025 RMK A01 T00730061  RH  092%=      5-min Rain = 0
KST3 051647Z 03016G21KT 07/06 A3025 RMK A01 T00730060  RH  092%=      5-min Rain = 0
KST3 051648Z 03018KT 07/06 A3025 RMK A01 T00730058  RH  090%=      5-min Rain = 0
KST3 051649Z 03015KT 07/06 A3025 RMK A01 T00730057  RH  090%=      5-min Rain = 0
KST3 051650Z 03014KT 07/06 A3025 RMK A01 T00730057  RH  090%=      5-min Rain = 0
KST3 051651Z 03014G19KT 07/06 A3025 RMK A01 T00730057  RH  090%=      5-min Rain = 0
KST3 051652Z 03014G19KT 07/06 A3025 RMK A01 T00730058  RH  090%=      5-min Rain = 0
KST3 051653Z 03014KT 07/06 A3025 RMK A01 T00730058  RH  090%=      5-min Rain = 0
KST3 051654Z 03014KT 07/06 A3025 RMK A01 T00730058  RH  090%=      5-min Rain = 0
KST3 051655Z 02019KT 07/06 A3025 RMK A01 T00730058  RH  090%=      5-min Rain = 0
KST3 051656Z 03017KT 07/06 A3025 RMK A01 T00730057  RH  089%=      5-min Rain = 0
KST3 051657Z 03016KT 07/06 A3025 RMK A01 T00730057  RH  090%=      5-min Rain = 0
KST3 051658Z 02017KT 07/06 A3025 RMK A01 T00720058  RH  090%=      5-min Rain = 0
KST3 051659Z 03016KT 07/06 A3026 RMK A01 T00720058  RH  091%=      5-min Rain = 0
KST3 051700Z 03015KT 07/06 A3026 RMK A01 T00720059  RH  091%=      5-min Rain = 0
KST3 051701Z 03014KT 07/06 A3026 RMK A01 T00730059  RH  091%=      5-min Rain = 0
KST3 051702Z 03015KT 07/06 A3026 RMK A01 T00730060  RH  092%=      5-min Rain = 0
KST3 051703Z 02018KT 07/06 A3026 RMK A01 T00730060  RH  092%=      5-min Rain = 0
KST3 051704Z 02016KT 07/06 A3026 RMK A01 T00730060  RH  092%=      5-min Rain = 0
KST3 051705Z 02017KT 07/06 A3026 RMK A01 T00730060  RH  091%=      5-min Rain = 0
KST3 051706Z 02016KT 07/06 A3026 RMK A01 T00730060  RH  092%=      5-min Rain = 0
KST3 051707Z 02016KT 07/06 A3026 RMK A01 T00730060  RH  092%=      5-min Rain = 0
KST3 051708Z 02017KT 07/06 A3026 RMK A01 T00730060  RH  091%=      5-min Rain = 0
KST3 051709Z 02018KT 07/06 A3026 RMK A01 T00730061  RH  092%=      5-min Rain = 0
KST3 051710Z 03016KT 07/06 A3026 RMK A01 T00730061  RH  092%=      5-min Rain = 0
KST3 051711Z 03016KT 07/06 A3026 RMK A01 T00730061  RH  092%=      5-min Rain = 0
KST3 051712Z 02018KT 07/06 A3026 RMK A01 T00730061  RH  092%=      5-min Rain = 0
KST3 051713Z 02021KT 07/06 A3026 RMK A01 T00730061  RH  092%=      5-min Rain = 0
KST3 051714Z 02018KT 07/06 A3026 RMK A01 T00730060  RH  092%=      5-min Rain = 0
KST3 051715Z 02020KT 07/06 A3027 RMK A01 T00720060  RH  092%=      5-min Rain = 0
KST3 051716Z 02017KT 07/06 A3027 RMK A01 T00730061  RH  092%=      5-min Rain = 0
KST3 051717Z 02015KT 07/06 A3026 RMK A01 T00720062  RH  093%=      5-min Rain = 0
KST3 051718Z 02015KT 07/06 A3026 RMK A01 T00720062  RH  093%=      5-min Rain = 0
KST3 051719Z 02017KT 07/06 A3026 RMK A01 T00730063  RH  093%=      5-min Rain = 0
KST3 051720Z 02017KT 07/06 A3027 RMK A01 T00730063  RH  093%=      5-min Rain = 0
KST3 051721Z 02017KT 07/07 A3027 RMK A01 T00740065  RH  094%=      5-min Rain = 0
KST3 051722Z 02021KT 08/06 A3027 RMK A01 T00750064  RH  093%=      5-min Rain = 0
KST3 051723Z 02018KT 08/06 A3027 RMK A01 T00760063  RH  091%=      5-min Rain = 0
KST3 051724Z 02019KT 08/06 A3027 RMK A01 T00770064  RH  091%=      5-min Rain = 0
KST3 051725Z 02017KT 08/06 A3027 RMK A01 T00770063  RH  091%=      5-min Rain = 0
KST3 051726Z 01015KT 08/07 A3027 RMK A01 T00770065  RH  092%=      5-min Rain = 0
KST3 051727Z 02016KT 08/06 A3027 RMK A01 T00770064  RH  092%=      5-min Rain = 0
KST3 051728Z 01017KT 08/06 A3027 RMK A01 T00760064  RH  092%=      5-min Rain = 0
KST3 051729Z 01019KT 08/06 A3027 RMK A01 T00770064  RH  091%=      5-min Rain = 0
KST3 051730Z 02017KT 08/06 A3027 RMK A01 T00770062  RH  091%=      5-min Rain = 0
KST3 051731Z 02020G25KT 08/06 A3027 RMK A01 T00770062  RH  090%=      5-min Rain = 0
KST3 051732Z 02021KT 08/06 A3027 RMK A01 T00760059  RH  089%=      5-min Rain = 0
KST3 051733Z 02018G23KT 08/06 A3027 RMK A01 T00760058  RH  088%=      5-min Rain = 0
KST3 051734Z 02021KT 08/06 A3027 RMK A01 T00760058  RH  088%=      5-min Rain = 0
KST3 051735Z 02020KT 08/06 A3027 RMK A01 T00760058  RH  088%=      5-min Rain = 0
KST3 051736Z 02014KT 08/06 A3027 RMK A01 T00750059  RH  089%=      5-min Rain = 0
KST3 051737Z 02016KT 08/06 A3027 RMK A01 T00750060  RH  090%=      5-min Rain = 0
KST3 051738Z 02016KT 08/06 A3027 RMK A01 T00760060  RH  090%=      5-min Rain = 0
KST3 051739Z 02018KT 08/06 A3027 RMK A01 T00760059  RH  089%=      5-min Rain = 0
KST3 051740Z 02016KT 08/06 A3027 RMK A01 T00760059  RH  089%=      5-min Rain = 0
KST3 051741Z 02016KT 08/06 A3027 RMK A01 T00760059  RH  089%=      5-min Rain = 0
KST3 051742Z 02021KT 08/06 A3027 RMK A01 T00760058  RH  088%=      5-min Rain = 0
KST3 051743Z 02019KT 08/06 A3027 RMK A01 T00770058  RH  088%=      5-min Rain = 0
KST3 051744Z 01018G23KT 08/06 A3027 RMK A01 T00790060  RH  088%=      5-min Rain = 0
KST3 051745Z 02019KT 08/06 A3027 RMK A01 T00810060  RH  087%=      5-min Rain = 0
KST3 051746Z 01020KT 08/06 A3027 RMK A01 T00830061  RH  086%=      5-min Rain = 0
KST3 051747Z 02020KT 08/06 A3027 RMK A01 T00840060  RH  085%=      5-min Rain = 0
KST3 051748Z 02019KT 08/06 A3027 RMK A01 T00840059  RH  084%=      5-min Rain = 0
KST3 051749Z 02021KT 09/06 A3027 RMK A01 T00860058  RH  083%=      5-min Rain = 0
KST3 051750Z 02021KT 09/06 A3027 RMK A01 T00870058  RH  082%=      5-min Rain = 0
KST3 051751Z 02018KT 09/06 A3027 RMK A01 T00890058  RH  081%=      5-min Rain = 0
KST3 051752Z 02016KT 09/06 A3027 RMK A01 T00900059  RH  081%=      5-min Rain = 0
KST3 051753Z 02018KT 09/06 A3027 RMK A01 T00920058  RH  080%=      5-min Rain = 0
KST3 051754Z 03019KT 09/06 A3027 RMK A01 T00910056  RH  078%=      5-min Rain = 0
KST3 051755Z 02017G24KT 09/06 A3027 RMK A01 T00910056  RH  079%=      5-min Rain = 0
KST3 051756Z 02022KT 09/06 A3027 RMK A01 T00930056  RH  077%=      5-min Rain = 0
KST3 051757Z 02022KT 09/05 A3027 RMK A01 T00930053  RH  076%=      5-min Rain = 0
KST3 051758Z 03022G27KT 09/05 A3027 RMK A01 T00940051  RH  075%=      5-min Rain = 0
KST3 051759Z 02018KT 09/05 A3027 RMK A01 T00940052  RH  075%=      5-min Rain = 0
KST3 051800Z 02022KT 10/05 A3027 RMK A01 T00950053  RH  075%=      5-min Rain = 0
KST3 051801Z 02020KT 10/05 A3027 RMK A01 T00960050  RH  073%=      5-min Rain = 0
KST3 051802Z 02021KT 10/05 A3027 RMK A01 T00960050  RH  073%=      5-min Rain = 0
KST3 051803Z 02020KT 10/05 A3027 RMK A01 T00960051  RH  074%=      5-min Rain = 0
KST3 051804Z 02021KT 10/05 A3027 RMK A01 T00950051  RH  074%=      5-min Rain = 0
KST3 051805Z 02019KT 09/05 A3027 RMK A01 T00940051  RH  074%=      5-min Rain = 0
KST3 051806Z 02019KT 09/05 A3027 RMK A01 T00940051  RH  075%=      5-min Rain = 0
KST3 051807Z 02020KT 10/05 A3027 RMK A01 T00950049  RH  073%=      5-min Rain = 0
KST3 051808Z 02022KT 10/05 A3027 RMK A01 T00960051  RH  074%=      5-min Rain = 0
KST3 051809Z 02018KT 10/05 A3027 RMK A01 T00960051  RH  074%=      5-min Rain = 0
KST3 051810Z 02019G24KT 10/05 A3027 RMK A01 T00950051  RH  074%=      5-min Rain = 0
KST3 051811Z 02021KT 10/05 A3027 RMK A01 T00950049  RH  073%=      5-min Rain = 0
KST3 051812Z 02023KT 10/05 A3027 RMK A01 T00960048  RH  072%=      5-min Rain = 0
KST3 051813Z 03024KT 10/05 A3027 RMK A01 T00950047  RH  072%=      5-min Rain = 0
KST3 051814Z 03024KT 10/05 A3027 RMK A01 T00950047  RH  072%=      5-min Rain = 0
KST3 051815Z 03021KT 10/05 A3027 RMK A01 T00950047  RH  072%=      5-min Rain = 0
KST3 051816Z 03020KT 10/05 A3027 RMK A01 T00950048  RH  073%=      5-min Rain = 0
KST3 051817Z 02020G25KT 10/05 A3026 RMK A01 T00950049  RH  073%=      5-min Rain = 0
KST3 051818Z 02021KT 10/05 A3026 RMK A01 T00960049  RH  073%=      5-min Rain = 0
KST3 051819Z 02021KT 10/05 A3026 RMK A01 T00980049  RH  072%=      5-min Rain = 0
KST3 051820Z 02022KT 10/05 A3026 RMK A01 T01000049  RH  070%=      5-min Rain = 0
KST3 051821Z 02024KT 10/05 A3026 RMK A01 T01020048  RH  069%=      5-min Rain = 0
KST3 051822Z 02023KT 10/05 A3026 RMK A01 T01020046  RH  068%=      5-min Rain = 0
KST3 051823Z 03020G25KT 10/05 A3026 RMK A01 T01030046  RH  068%=      5-min Rain = 0
KST3 051824Z 03019KT 10/05 A3026 RMK A01 T01040046  RH  067%=      5-min Rain = 0
KST3 051825Z 02019KT 11/05 A3026 RMK A01 T01060048  RH  067%=      5-min Rain = 0
KST3 051826Z 02023G28KT 11/05 A3026 RMK A01 T01070048  RH  067%=      5-min Rain = 0
KST3 051827Z 03023KT 11/05 A3026 RMK A01 T01060046  RH  066%=      5-min Rain = 0
KST3 051828Z 02024KT 10/04 A3026 RMK A01 T01040043  RH  066%=      5-min Rain = 0
KST3 051829Z 02024KT 10/04 A3026 RMK A01 T01020042  RH  066%=      5-min Rain = 0
KST3 051830Z 02020KT 10/04 A3026 RMK A01 T01020043  RH  067%=      5-min Rain = 0
KST3 051831Z 02020KT 10/05 A3026 RMK A01 T01040045  RH  067%=      5-min Rain = 0
KST3 051832Z 02023KT 11/04 A3026 RMK A01 T01060044  RH  066%=      5-min Rain = 0
KST3 051833Z 02024KT 11/04 A3026 RMK A01 T01050042  RH  065%=      5-min Rain = 0
KST3 051834Z 03024KT 10/04 A3026 RMK A01 T01040041  RH  065%=      5-min Rain = 0
KST3 051835Z 02023KT 10/04 A3026 RMK A01 T01030039  RH  064%=      5-min Rain = 0
KST3 051836Z 02026KT 10/04 A3026 RMK A01 T01040039  RH  064%=      5-min Rain = 0
KST3 051837Z 02025KT 10/04 A3026 RMK A01 T01040038  RH  064%=      5-min Rain = 0
KST3 051838Z 02025KT 10/04 A3026 RMK A01 T01040038  RH  064%=      5-min Rain = 0
KST3 051839Z 02024KT 11/04 A3026 RMK A01 T01050038  RH  063%=      5-min Rain = 0
KST3 051840Z 02020G25KT 11/04 A3026 RMK A01 T01060040  RH  064%=      5-min Rain = 0
KST3 051841Z 02020G25KT 11/05 A3026 RMK A01 T01120045  RH  064%=      5-min Rain = 0
KST3 051842Z 03020G25KT 12/05 A3026 RMK A01 T01170045  RH  061%=      5-min Rain = 0
KST3 051843Z 02021G26KT 12/04 A3026 RMK A01 T01180041  RH  059%=      5-min Rain = 0
KST3 051844Z 01023KT 12/04 A3026 RMK A01 T01160041  RH  060%=      5-min Rain = 0
KST3 051845Z 02022KT 12/04 A3026 RMK A01 T01160041  RH  060%=      5-min Rain = 0
KST3 051846Z 03019KT 11/04 A3026 RMK A01 T01130040  RH  061%=      5-min Rain = 0
KST3 051847Z 03021G26KT 11/04 A3026 RMK A01 T01140041  RH  061%=      5-min Rain = 0
KST3 051848Z 03021KT 11/04 A3026 RMK A01 T01140036  RH  059%=      5-min Rain = 0
KST3 051849Z 03022G29KT 11/04 A3026 RMK A01 T01130037  RH  060%=      5-min Rain = 0
KST3 051850Z 03020KT 11/04 A3026 RMK A01 T01120037  RH  060%=      5-min Rain = 0
KST3 051851Z 03020KT 11/04 A3026 RMK A01 T01130039  RH  060%=      5-min Rain = 0
KST3 051852Z 03019G25KT 12/04 A3026 RMK A01 T01150039  RH  060%=      5-min Rain = 0
KST3 051853Z 03020G26KT 12/04 A3026 RMK A01 T01160041  RH  060%=      5-min Rain = 0
KST3 051854Z 03022G28KT 12/04 A3026 RMK A01 T01210040  RH  058%=      5-min Rain = 0
KST3 051855Z 04022G27KT 12/04 A3026 RMK A01 T01230038  RH  056%=      5-min Rain = 0
KST3 051856Z 04022KT 12/04 A3026 RMK A01 T01190035  RH  056%=      5-min Rain = 0
KST3 051857Z 04024KT 12/04 A3026 RMK A01 T01160035  RH  057%=      5-min Rain = 0
KST3 051858Z 04023KT 11/04 A3026 RMK A01 T01130035  RH  059%=      5-min Rain = 0
KST3 051859Z 04020G25KT 11/04 A3026 RMK A01 T01120036  RH  060%=      5-min Rain = 0
KST3 051900Z 02019KT 11/04 A3026 RMK A01 T01130038  RH  060%=      5-min Rain = 0
KST3 051901Z 02021G27KT 11/04 A3026 RMK A01 T01140036  RH  059%=      5-min Rain = 0
KST3 051902Z 02026KT 11/04 A3026 RMK A01 T01130035  RH  059%=      5-min Rain = 0
KST3 051903Z 02025KT 11/04 A3026 RMK A01 T01100035  RH  060%=      5-min Rain = 0
KST3 051904Z 02023G28KT 11/04 A3026 RMK A01 T01100035  RH  060%=      5-min Rain = 0
KST3 051905Z 03021KT 11/04 A3026 RMK A01 T01130036  RH  059%=      5-min Rain = 0
KST3 051906Z 04018G25KT 12/04 A3026 RMK A01 T01150036  RH  058%=      5-min Rain = 0
KST3 051907Z 04021KT 12/04 A3026 RMK A01 T01170037  RH  058%=      5-min Rain = 0
KST3 051908Z 04023G28KT 12/04 A3026 RMK A01 T01170035  RH  057%=      5-min Rain = 0
KST3 051909Z 04022G29KT 11/04 A3026 RMK A01 T01130035  RH  059%=      5-min Rain = 0
KST3 051910Z 03024KT 11/04 A3026 RMK A01 T01130037  RH  059%=      5-min Rain = 0
KST3 051911Z 03021KT 11/04 A3026 RMK A01 T01130037  RH  059%=      5-min Rain = 0
KST3 051912Z 03021KT 11/04 A3026 RMK A01 T01130036  RH  059%=      5-min Rain = 0
KST3 051913Z 03021KT 11/04 A3026 RMK A01 T01120036  RH  059%=      5-min Rain = 0
KST3 051914Z 03020KT 11/04 A3026 RMK A01 T01110036  RH  060%=      5-min Rain = 0
KST3 051915Z 03020KT 11/04 A3026 RMK A01 T01110036  RH  060%=      5-min Rain = 0
KST3 051916Z 03018G23KT 11/04 A3026 RMK A01 T01110036  RH  060%=      5-min Rain = 0
KST3 051917Z 03017KT 11/04 A3026 RMK A01 T01110038  RH  060%=      5-min Rain = 0
KST3 051918Z 05019G27KT 11/04 A3026 RMK A01 T01130039  RH  060%=      5-min Rain = 0
KST3 051919Z 05022KT 11/04 A3026 RMK A01 T01140037  RH  059%=      5-min Rain = 0
KST3 051920Z 05020KT 11/03 A3026 RMK A01 T01120034  RH  059%=      5-min Rain = 0
KST3 051921Z 05018G24KT 11/04 A3026 RMK A01 T01100035  RH  060%=      5-min Rain = 0
KST3 051922Z 04021G27KT 11/04 A3026 RMK A01 T01100036  RH  060%=      5-min Rain = 0
KST3 051923Z 03022KT 11/04 A3026 RMK A01 T01100037  RH  061%=      5-min Rain = 0
KST3 051924Z 04022G27KT 11/04 A3026 RMK A01 T01100037  RH  061%=      5-min Rain = 0
KST3 051925Z 04024KT 11/04 A3026 RMK A01 T01090038  RH  061%=      5-min Rain = 0
KST3 051926Z 04022KT 11/04 A3026 RMK A01 T01100038  RH  061%=      5-min Rain = 0
KST3 051927Z 04019G24KT 11/04 A3026 RMK A01 T01110038  RH  061%=      5-min Rain = 0
KST3 051928Z 04022G27KT 11/04 A3026 RMK A01 T01130036  RH  059%=      5-min Rain = 0
KST3 051929Z 03024G29KT 11/03 A3026 RMK A01 T01140033  RH  057%=      5-min Rain = 0
KST3 051930Z 03023KT 11/03 A3026 RMK A01 T01140033  RH  058%=      5-min Rain = 0
KST3 051931Z 03019KT 12/04 A3026 RMK A01 T01150037  RH  059%=      5-min Rain = 0
KST3 051932Z 03020KT 12/04 A3026 RMK A01 T01200038  RH  057%=      5-min Rain = 0
KST3 051933Z 03020KT 12/04 A3026 RMK A01 T01190036  RH  057%=      5-min Rain = 0
KST3 051934Z 03017KT 12/04 A3026 RMK A01 T01170036  RH  058%=      5-min Rain = 0
KST3 051935Z 02016G22KT 12/04 A3026 RMK A01 T01180039  RH  058%=      5-min Rain = 0
KST3 051936Z 02020KT 12/04 A3026 RMK A01 T01230043  RH  058%=      5-min Rain = 0
KST3 051937Z 02018KT 13/04 A3026 RMK A01 T01260040  RH  056%=      5-min Rain = 0
KST3 051938Z 03018G23KT 12/04 A3026 RMK A01 T01240038  RH  056%=      5-min Rain = 0
KST3 051939Z 03017G23KT 12/04 A3026 RMK A01 T01230037  RH  056%=      5-min Rain = 0
KST3 051940Z 03023G29KT 12/04 A3026 RMK A01 T01240038  RH  056%=      5-min Rain = 0
KST3 051941Z 03020KT 12/04 A3026 RMK A01 T01240035  RH  055%=      5-min Rain = 0
KST3 051942Z 02022KT 12/03 A3025 RMK A01 T01220034  RH  055%=      5-min Rain = 0
KST3 051943Z 04021KT 12/03 A3026 RMK A01 T01220034  RH  055%=      5-min Rain = 0
KST3 051944Z 04022KT 12/03 A3025 RMK A01 T01210034  RH  055%=      5-min Rain = 0
KST3 051945Z 04020KT 12/03 A3026 RMK A01 T01190033  RH  056%=      5-min Rain = 0
KST3 051946Z 02018KT 12/03 A3025 RMK A01 T01160034  RH  057%=      5-min Rain = 0
KST3 051947Z 03020KT 12/04 A3025 RMK A01 T01170036  RH  057%=      5-min Rain = 0
KST3 051948Z 02020KT 12/04 A3025 RMK A01 T01200038  RH  057%=      5-min Rain = 0
KST3 051949Z 02017KT 12/04 A3025 RMK A01 T01240041  RH  057%=      5-min Rain = 0
KST3 051950Z 02015KT 13/04 A3025 RMK A01 T01250040  RH  056%=      5-min Rain = 0
KST3 051951Z 02017KT 13/04 A3025 RMK A01 T01280041  RH  055%=      5-min Rain = 0
KST3 051952Z 01019KT 13/04 A3025 RMK A01 T01280039  RH  055%=      5-min Rain = 0
KST3 051953Z 01017KT 13/04 A3025 RMK A01 T01260037  RH  055%=      5-min Rain = 0
KST3 051954Z 01018KT 12/04 A3025 RMK A01 T01240038  RH  056%=      5-min Rain = 0
KST3 051955Z 01021KT 12/04 A3025 RMK A01 T01240038  RH  056%=      5-min Rain = 0
KST3 051956Z 01022KT 13/04 A3025 RMK A01 T01250039  RH  056%=      5-min Rain = 0
KST3 051957Z 01019G24KT 13/04 A3025 RMK A01 T01250039  RH  056%=      5-min Rain = 0
KST3 051958Z 00020KT 12/04 A3025 RMK A01 T01240039  RH  056%=      5-min Rain = 0
KST3 051959Z 02023KT 13/04 A3025 RMK A01 T01250038  RH  055%=      5-min Rain = 0
KST3 052000Z 03019KT 12/04 A3025 RMK A01 T01230036  RH  055%=      5-min Rain = 0
KST3 052001Z 02020G25KT 12/04 A3025 RMK A01 T01210037  RH  056%=      5-min Rain = 0
KST3 052002Z 02021KT 12/04 A3025 RMK A01 T01200036  RH  056%=      5-min Rain = 0
KST3 052003Z 01020KT 12/04 A3025 RMK A01 T01200036  RH  057%=      5-min Rain = 0
KST3 052004Z 02019KT 12/04 A3025 RMK A01 T01240042  RH  057%=      5-min Rain = 0
KST3 052005Z 03017KT 13/04 A3025 RMK A01 T01280042  RH  056%=      5-min Rain = 0
KST3 052006Z 02017KT 13/04 A3025 RMK A01 T01280041  RH  056%=      5-min Rain = 0
KST3 052007Z 01021KT 13/04 A3025 RMK A01 T01260040  RH  056%=      5-min Rain = 0
KST3 052008Z 01021KT 12/04 A3025 RMK A01 T01230039  RH  057%=      5-min Rain = 0
KST3 052009Z 01023KT 12/04 A3025 RMK A01 T01210038  RH  057%=      5-min Rain = 0
KST3 052010Z 01021KT 12/04 A3025 RMK A01 T01200037  RH  057%=      5-min Rain = 0
KST3 052011Z 01021KT 12/04 A3025 RMK A01 T01180037  RH  058%=      5-min Rain = 0
KST3 052012Z 01021KT 12/04 A3025 RMK A01 T01170037  RH  058%=      5-min Rain = 0
KST3 052013Z 01015KT 12/04 A3025 RMK A01 T01160037  RH  058%=      5-min Rain = 0
KST3 052014Z 01017G24KT 12/04 A3025 RMK A01 T01200042  RH  059%=      5-min Rain = 0
KST3 052015Z 01022KT 12/04 A3025 RMK A01 T01240041  RH  057%=      5-min Rain = 0
KST3 052016Z 02022KT 13/04 A3025 RMK A01 T01260040  RH  056%=      5-min Rain = 0
KST3 052017Z 03022KT 13/04 A3025 RMK A01 T01300038  RH  053%=      5-min Rain = 0
KST3 052018Z 02019KT 13/04 A3025 RMK A01 T01310036  RH  052%=      5-min Rain = 0
KST3 052019Z 03017G22KT 13/04 A3025 RMK A01 T01320038  RH  053%=      5-min Rain = 0
KST3 052020Z 03021KT 13/04 A3025 RMK A01 T01330037  RH  052%=      5-min Rain = 0
KST3 052021Z 03021KT 13/04 A3025 RMK A01 T01330035  RH  051%=      5-min Rain = 0
KST3 052022Z 02017KT 13/04 A3024 RMK A01 T01330036  RH  052%=      5-min Rain = 0
KST3 052023Z 02018KT 13/04 A3024 RMK A01 T01320038  RH  053%=      5-min Rain = 0
KST3 052024Z 02020KT 13/04 A3024 RMK A01 T01300039  RH  054%=      5-min Rain = 0
KST3 052025Z 02019KT 13/04 A3024 RMK A01 T01280038  RH  054%=      5-min Rain = 0
KST3 052026Z 03018KT 13/04 A3024 RMK A01 T01300038  RH  054%=      5-min Rain = 0
KST3 052027Z 02017KT 13/04 A3025 RMK A01 T01340038  RH  052%=      5-min Rain = 0
KST3 052028Z 02017KT 14/04 A3025 RMK A01 T01360037  RH  051%=      5-min Rain = 0
KST3 052029Z 02018KT 14/04 A3024 RMK A01 T01350037  RH  051%=      5-min Rain = 0
KST3 052030Z 01018KT 14/04 A3024 RMK A01 T01360035  RH  051%=      5-min Rain = 0
KST3 052031Z 02020G26KT 13/03 A3024 RMK A01 T01340034  RH  050%=      5-min Rain = 0
KST3 052032Z 03016KT 13/04 A3025 RMK A01 T01320036  RH  052%=      5-min Rain = 0
KST3 052033Z 03014KT 13/04 A3024 RMK A01 T01320038  RH  053%=      5-min Rain = 0
KST3 052034Z 03016G22KT 14/04 A3024 RMK A01 T01360041  RH  052%=      5-min Rain = 0
KST3 052035Z 04017KT 14/04 A3024 RMK A01 T01390038  RH  050%=      5-min Rain = 0
KST3 052036Z 03015KT 14/04 A3024 RMK A01 T01390038  RH  051%=      5-min Rain = 0
KST3 052037Z 03015G22KT 14/04 A3024 RMK A01 T01420040  RH  050%=      5-min Rain = 0
KST3 052038Z 04018KT 14/04 A3024 RMK A01 T01420038  RH  050%=      5-min Rain = 0
KST3 052039Z 04013KT 14/04 A3024 RMK A01 T01380038  RH  051%=      5-min Rain = 0
KST3 052040Z 03016KT 14/04 A3024 RMK A01 T01380040  RH  052%=      5-min Rain = 0
KST3 052041Z 03020KT 14/04 A3024 RMK A01 T01380039  RH  051%=      5-min Rain = 0
KST3 052042Z 01017KT 14/04 A3024 RMK A01 T01370038  RH  051%=      5-min Rain = 0
KST3 052043Z 02017KT 13/04 A3024 RMK A01 T01340035  RH  051%=      5-min Rain = 0
KST3 052044Z 02017G22KT 13/04 A3024 RMK A01 T01320036  RH  052%=      5-min Rain = 0
KST3 052045Z 02018G23KT 13/04 A3024 RMK A01 T01330036  RH  052%=      5-min Rain = 0
KST3 052046Z 02019KT 14/04 A3024 RMK A01 T01350036  RH  051%=      5-min Rain = 0
KST3 052047Z 04017KT 14/03 A3025 RMK A01 T01380034  RH  049%=      5-min Rain = 0
KST3 052048Z 04017G22KT 14/04 A3024 RMK A01 T01410035  RH  049%=      5-min Rain = 0
KST3 052049Z 04019KT 14/03 A3025 RMK A01 T01430033  RH  048%=      5-min Rain = 0
KST3 052050Z 03019KT 14/03 A3025 RMK A01 T01390031  RH  048%=      5-min Rain = 0
KST3 052051Z 02020KT 14/03 A3025 RMK A01 T01400033  RH  048%=      5-min Rain = 0
KST3 052052Z 02021KT 14/03 A3025 RMK A01 T01410032  RH  048%=      5-min Rain = 0
KST3 052053Z 02017KT 14/03 A3025 RMK A01 T01390031  RH  048%=      5-min Rain = 0
KST3 052054Z 02018KT 14/03 A3025 RMK A01 T01380032  RH  049%=      5-min Rain = 0
KST3 052055Z 01018KT 14/03 A3025 RMK A01 T01400032  RH  048%=      5-min Rain = 0
KST3 052056Z 01018KT 14/03 A3025 RMK A01 T01390030  RH  048%=      5-min Rain = 0
KST3 052057Z 02018KT 14/03 A3025 RMK A01 T01360030  RH  049%=      5-min Rain = 0
KST3 052058Z 01018KT 14/03 A3025 RMK A01 T01360033  RH  050%=      5-min Rain = 0
KST3 052059Z 02019KT 14/04 A3025 RMK A01 T01390035  RH  049%=      5-min Rain = 0
KST3 052100Z 03020KT 14/03 A3025 RMK A01 T01420032  RH  047%=      5-min Rain = 0
KST3 052101Z 03019KT 14/03 A3025 RMK A01 T01400030  RH  047%=      5-min Rain = 0
KST3 052102Z 02018KT 14/03 A3025 RMK A01 T01390032  RH  048%=      5-min Rain = 0
KST3 052103Z 03015KT 14/03 A3025 RMK A01 T01400031  RH  048%=      5-min Rain = 0
KST3 052104Z 04015KT 14/03 A3025 RMK A01 T01380026  RH  047%=      5-min Rain = 0
KST3 052105Z 04016KT 14/03 A3025 RMK A01 T01390026  RH  046%=      5-min Rain = 0
KST3 052106Z 02017KT 14/03 A3025 RMK A01 T01410028  RH  046%=      5-min Rain = 0
KST3 052107Z 01020G25KT 14/03 A3025 RMK A01 T01410028  RH  047%=      5-min Rain = 0
KST3 052108Z 02020KT 14/03 A3025 RMK A01 T01390028  RH  047%=      5-min Rain = 0
KST3 052109Z 03018KT 14/03 A3025 RMK A01 T01370029  RH  048%=      5-min Rain = 0
KST3 052110Z 02021KT 14/03 A3025 RMK A01 T01380030  RH  048%=      5-min Rain = 0
KST3 052111Z 02018KT 14/03 A3025 RMK A01 T01390032  RH  048%=      5-min Rain = 0
KST3 052112Z 01017KT 14/03 A3025 RMK A01 T01390031  RH  048%=      5-min Rain = 0
KST3 052113Z 01018KT 14/03 A3025 RMK A01 T01380031  RH  049%=      5-min Rain = 0
KST3 052114Z 01015KT 14/03 A3025 RMK A01 T01400032  RH  048%=      5-min Rain = 0
KST3 052115Z 01016KT 14/03 A3024 RMK A01 T01400032  RH  048%=      5-min Rain = 0
KST3 052116Z 02017KT 14/04 A3024 RMK A01 T01430035  RH  048%=      5-min Rain = 0
KST3 052117Z 03015KT 15/03 A3025 RMK A01 T01480033  RH  046%=      5-min Rain = 0
KST3 052118Z 03015KT 15/03 A3025 RMK A01 T01480032  RH  046%=      5-min Rain = 0
KST3 052119Z 03017KT 15/03 A3025 RMK A01 T01480030  RH  045%=      5-min Rain = 0
KST3 052120Z 03017KT 15/03 A3025 RMK A01 T01460030  RH  046%=      5-min Rain = 0
KST3 052121Z 02015G22KT 15/03 A3025 RMK A01 T01450031  RH  046%=      5-min Rain = 0
KST3 052122Z 02019KT 15/03 A3025 RMK A01 T01450030  RH  046%=      5-min Rain = 0
KST3 052123Z 02017KT 14/03 A3025 RMK A01 T01440030  RH  046%=      5-min Rain = 0
KST3 052124Z 02017KT 14/03 A3025 RMK A01 T01430031  RH  047%=      5-min Rain = 0
KST3 052125Z 03016KT 15/03 A3025 RMK A01 T01450034  RH  047%=      5-min Rain = 0
KST3 052126Z 02018KT 15/04 A3025 RMK A01 T01480035  RH  047%=      5-min Rain = 0
KST3 052127Z 02019KT 15/03 A3025 RMK A01 T01480034  RH  046%=      5-min Rain = 0
KST3 052128Z 02018KT 15/03 A3025 RMK A01 T01470032  RH  046%=      5-min Rain = 0
KST3 052129Z 03016G22KT 14/03 A3025 RMK A01 T01440032  RH  047%=      5-min Rain = 0
KST3 052130Z 02017KT 15/03 A3025 RMK A01 T01450032  RH  047%=      5-min Rain = 0
KST3 052131Z 01021KT 15/03 A3025 RMK A01 T01480031  RH  046%=      5-min Rain = 0
KST3 052132Z 01019G24KT 15/03 A3025 RMK A01 T01490030  RH  045%=      5-min Rain = 0
KST3 052133Z 02019KT 15/03 A3025 RMK A01 T01490031  RH  045%=      5-min Rain = 0
KST3 052134Z 03016KT 15/03 A3025 RMK A01 T01490032  RH  045%=      5-min Rain = 0
KST3 052135Z 03016KT 15/03 A3025 RMK A01 T01460031  RH  046%=      5-min Rain = 0
KST3 052136Z 03015G20KT 14/03 A3025 RMK A01 T01440030  RH  046%=      5-min Rain = 0
KST3 052137Z 04015G24KT 14/03 A3025 RMK A01 T01400029  RH  047%=      5-min Rain = 0
KST3 052138Z 03019KT 14/03 A3025 RMK A01 T01380028  RH  048%=      5-min Rain = 0
KST3 052139Z 02020KT 14/03 A3025 RMK A01 T01360027  RH  048%=      5-min Rain = 0
KST3 052140Z 02017KT 13/03 A3025 RMK A01 T01340028  RH  048%=      5-min Rain = 0
KST3 052141Z 01017KT 13/03 A3025 RMK A01 T01340028  RH  048%=      5-min Rain = 0
KST3 052142Z 02018G23KT 13/03 A3025 RMK A01 T01340028  RH  049%=      5-min Rain = 0
KST3 052143Z 02017KT 13/03 A3025 RMK A01 T01330025  RH  048%=      5-min Rain = 0
KST3 052144Z 02017KT 13/03 A3025 RMK A01 T01320026  RH  048%=      5-min Rain = 0
KST3 052145Z 02016KT 13/03 A3025 RMK A01 T01330028  RH  049%=      5-min Rain = 0
KST3 052146Z 02015KT 14/03 A3025 RMK A01 T01350031  RH  049%=      5-min Rain = 0
KST3 052147Z 02014KT 14/03 A3025 RMK A01 T01380030  RH  048%=      5-min Rain = 0
KST3 052148Z 02016G21KT 14/03 A3025 RMK A01 T01400028  RH  047%=      5-min Rain = 0
KST3 052149Z 02018KT 14/03 A3025 RMK A01 T01410027  RH  046%=      5-min Rain = 0
KST3 052150Z 02019KT 14/03 A3025 RMK A01 T01400026  RH  046%=      5-min Rain = 0
KST3 052151Z 02018KT 14/02 A3025 RMK A01 T01410023  RH  045%=      5-min Rain = 0
KST3 052152Z 02015KT 14/02 A3025 RMK A01 T01420022  RH  045%=      5-min Rain = 0
KST3 052153Z 02017KT 14/02 A3025 RMK A01 T01440024  RH  044%=      5-min Rain = 0
KST3 052154Z 01017KT 14/02 A3025 RMK A01 T01440023  RH  044%=      5-min Rain = 0
KST3 052155Z 02016KT 15/02 A3025 RMK A01 T01450024  RH  044%=      5-min Rain = 0
KST3 052156Z 01017KT 15/03 A3025 RMK A01 T01450025  RH  045%=      5-min Rain = 0
KST3 052157Z 01015KT 15/02 A3025 RMK A01 T01450021  RH  043%=      5-min Rain = 0
KST3 052158Z 02015KT 15/02 A3025 RMK A01 T01460023  RH  043%=      5-min Rain = 0
KST3 052159Z 02015KT 15/03 A3026 RMK A01 T01470025  RH  044%=      5-min Rain = 0
KST3 052200Z 03015KT 15/02 A3026 RMK A01 T01460024  RH  044%=      5-min Rain = 0
KST3 052201Z 02017KT 14/02 A3026 RMK A01 T01440024  RH  044%=      5-min Rain = 0
KST3 052202Z 01013KT 15/02 A3026 RMK A01 T01450024  RH  044%=      5-min Rain = 0
KST3 052203Z 02015KT 15/03 A3025 RMK A01 T01470025  RH  044%=      5-min Rain = 0
KST3 052204Z 02015KT 15/02 A3025 RMK A01 T01480020  RH  042%=      5-min Rain = 0
KST3 052205Z 01015G20KT 15/02 A3025 RMK A01 T01460020  RH  043%=      5-min Rain = 0
KST3 052206Z 02016KT 15/02 A3025 RMK A01 T01470020  RH  042%=      5-min Rain = 0
KST3 052207Z 01018KT 14/02 A3026 RMK A01 T01440021  RH  043%=      5-min Rain = 0
KST3 052208Z 00016KT 14/02 A3025 RMK A01 T01420022  RH  044%=      5-min Rain = 0
KST3 052209Z 01015KT 14/02 A3025 RMK A01 T01420023  RH  045%=      5-min Rain = 0
KST3 052210Z 02014KT 14/03 A3025 RMK A01 T01440025  RH  045%=      5-min Rain = 0
KST3 052211Z 03014KT 15/03 A3025 RMK A01 T01470025  RH  044%=      5-min Rain = 0
KST3 052212Z 02015KT 15/02 A3025 RMK A01 T01500024  RH  043%=      5-min Rain = 0
KST3 052213Z 01018KT 15/02 A3025 RMK A01 T01490018  RH  041%=      5-min Rain = 0
KST3 052214Z 01017KT 15/02 A3025 RMK A01 T01470015  RH  041%=      5-min Rain = 0
KST3 052215Z 01016KT 15/02 A3025 RMK A01 T01450016  RH  041%=      5-min Rain = 0
KST3 052216Z 02015KT 15/02 A3025 RMK A01 T01460019  RH  042%=      5-min Rain = 0
KST3 052217Z 03015KT 15/02 A3025 RMK A01 T01490022  RH  042%=      5-min Rain = 0
KST3 052218Z 03014KT 15/02 A3025 RMK A01 T01490021  RH  042%=      5-min Rain = 0
KST3 052219Z 03014KT 15/02 A3025 RMK A01 T01480021  RH  042%=      5-min Rain = 0
KST3 052220Z 02012KT 15/02 A3025 RMK A01 T01460020  RH  043%=      5-min Rain = 0
KST3 052221Z 01013KT 15/02 A3025 RMK A01 T01450020  RH  043%=      5-min Rain = 0
KST3 052222Z 01014KT 15/02 A3025 RMK A01 T01480020  RH  042%=      5-min Rain = 0
KST3 052223Z 01013KT 15/02 A3025 RMK A01 T01500018  RH  041%=      5-min Rain = 0
KST3 052224Z 02014KT 15/02 A3025 RMK A01 T01510019  RH  041%=      5-min Rain = 0
KST3 052225Z 02016KT 15/02 A3025 RMK A01 T01490018  RH  041%=      5-min Rain = 0
KST3 052226Z 03014KT 15/02 A3025 RMK A01 T01470015  RH  041%=      5-min Rain = 0
KST3 052227Z 02015KT 15/02 A3025 RMK A01 T01460016  RH  041%=      5-min Rain = 0
KST3 052228Z 02014KT 15/02 A3025 RMK A01 T01460016  RH  041%=      5-min Rain = 0
KST3 052229Z 03012KT 15/02 A3026 RMK A01 T01480017  RH  041%=      5-min Rain = 0
KST3 052230Z 03016KT 15/02 A3026 RMK A01 T01490018  RH  041%=      5-min Rain = 0
KST3 052231Z 02017KT 15/02 A3026 RMK A01 T01470017  RH  041%=      5-min Rain = 0
KST3 052232Z 02016KT 15/02 A3026 RMK A01 T01460016  RH  041%=      5-min Rain = 0
KST3 052233Z 03013KT 15/02 A3026 RMK A01 T01460015  RH  041%=      5-min Rain = 0
KST3 052234Z 03010KT 15/01 A3025 RMK A01 T01470013  RH  040%=      5-min Rain = 0
KST3 052235Z 03015G20KT 15/01 A3025 RMK A01 T01470012  RH  040%=      5-min Rain = 0
KST3 052236Z 03017KT 15/01 A3026 RMK A01 T01450008  RH  039%=      5-min Rain = 0
KST3 052237Z 03016KT 14/01 A3025 RMK A01 T01440009  RH  040%=      5-min Rain = 0
KST3 052238Z 04016KT 14/01 A3026 RMK A01 T01430010  RH  040%=      5-min Rain = 0
KST3 052239Z 03015KT 14/01 A3026 RMK A01 T01440011  RH  040%=      5-min Rain = 0
KST3 052240Z 02015KT 15/01 A3026 RMK A01 T01450012  RH  040%=      5-min Rain = 0
KST3 052241Z 01016KT 15/01 A3026 RMK A01 T01450010  RH  040%=      5-min Rain = 0
KST3 052242Z 02015KT 14/01 A3026 RMK A01 T01430009  RH  040%=      5-min Rain = 0
KST3 052243Z 02018KT 14/01 A3026 RMK A01 T01430008  RH  040%=      5-min Rain = 0
KST3 052244Z 03016KT 14/01 A3026 RMK A01 T01440009  RH  040%=      5-min Rain = 0
KST3 052245Z 02015KT 14/01 A3026 RMK A01 T01440008  RH  040%=      5-min Rain = 0
KST3 052246Z 02015KT 14/01 A3026 RMK A01 T01420009  RH  040%=      5-min Rain = 0
KST3 052247Z 02014KT 14/01 A3026 RMK A01 T01400010  RH  041%=      5-min Rain = 0
KST3 052248Z 03015KT 14/01 A3026 RMK A01 T01400011  RH  041%=      5-min Rain = 0
KST3 052249Z 03012KT 14/01 A3026 RMK A01 T01400010  RH  041%=      5-min Rain = 0
KST3 052250Z 03011KT 14/01 A3026 RMK A01 T01420012  RH  041%=      5-min Rain = 0
KST3 052251Z 01015KT 15/01 A3026 RMK A01 T01450013  RH  041%=      5-min Rain = 0
KST3 052252Z 01014KT 15/01 A3025 RMK A01 T01460011  RH  040%=      5-min Rain = 0
KST3 052253Z 02015KT 15/01 A3026 RMK A01 T01460012  RH  040%=      5-min Rain = 0
KST3 052254Z 01012KT 15/01 A3025 RMK A01 T01470011  RH  040%=      5-min Rain = 0
KST3 052255Z 01014KT 15/01 A3025 RMK A01 T01480012  RH  040%=      5-min Rain = 0
KST3 052256Z 04015KT 15/01 A3026 RMK A01 T01480011  RH  039%=      5-min Rain = 0
KST3 052257Z 02013KT 15/01 A3026 RMK A01 T01480012  RH  040%=      5-min Rain = 0
KST3 052258Z 03015KT 15/01 A3026 RMK A01 T01490012  RH  040%=      5-min Rain = 0
KST3 052259Z 02016KT 15/01 A3026 RMK A01 T01490012  RH  039%=      5-min Rain = 0
KST3 052300Z 02014KT 15/01 A3026 RMK A01 T01470012  RH  040%=      5-min Rain = 0
KST3 052301Z 04013KT 15/02 A3026 RMK A01 T01460016  RH  041%=      5-min Rain = 0
KST3 052302Z 04015KT 14/02 A3026 RMK A01 T01440019  RH  043%=      5-min Rain = 0
KST3 052303Z 04013KT 14/02 A3026 RMK A01 T01400019  RH  044%=      5-min Rain = 0
KST3 052304Z 04012KT 14/02 A3026 RMK A01 T01390020  RH  044%=      5-min Rain = 0
KST3 052305Z 05012KT 14/02 A3026 RMK A01 T01380020  RH  045%=      5-min Rain = 0
KST3 052306Z 05012KT 14/02 A3026 RMK A01 T01380020  RH  045%=      5-min Rain = 0
KST3 052307Z 04012KT 14/02 A3026 RMK A01 T01370020  RH  045%=      5-min Rain = 0
KST3 052308Z 04013KT 14/02 A3026 RMK A01 T01390020  RH  045%=      5-min Rain = 0
KST3 052309Z 04014KT 14/02 A3026 RMK A01 T01390019  RH  044%=      5-min Rain = 0
KST3 052310Z 04014KT 14/02 A3026 RMK A01 T01390019  RH  044%=      5-min Rain = 0
KST3 052311Z 04013KT 14/02 A3026 RMK A01 T01380020  RH  045%=      5-min Rain = 0
KST3 052312Z 04013KT 14/02 A3026 RMK A01 T01380021  RH  045%=      5-min Rain = 0
KST3 052313Z 03013KT 14/02 A3026 RMK A01 T01380021  RH  045%=      5-min Rain = 0
KST3 052314Z 03013KT 14/02 A3026 RMK A01 T01380020  RH  045%=      5-min Rain = 0
KST3 052315Z 03012KT 14/02 A3026 RMK A01 T01380020  RH  045%=      5-min Rain = 0
KST3 052316Z 03012KT 14/02 A3026 RMK A01 T01380019  RH  045%=      5-min Rain = 0
KST3 052317Z 03011KT 14/02 A3026 RMK A01 T01370019  RH  045%=      5-min Rain = 0
KST3 052318Z 02012KT 14/02 A3026 RMK A01 T01370019  RH  045%=      5-min Rain = 0
KST3 052319Z 03010G16KT 14/02 A3026 RMK A01 T01370019  RH  045%=      5-min Rain = 0
KST3 052320Z 02013KT 14/02 A3026 RMK A01 T01370018  RH  044%=      5-min Rain = 0
KST3 052321Z 02011KT 14/02 A3026 RMK A01 T01380017  RH  044%=      5-min Rain = 0
KST3 052322Z 02012KT 14/02 A3026 RMK A01 T01390017  RH  043%=      5-min Rain = 0
KST3 052323Z 02012KT 14/02 A3026 RMK A01 T01390016  RH  043%=      5-min Rain = 0
KST3 052324Z 02012KT 14/02 A3026 RMK A01 T01390015  RH  043%=      5-min Rain = 0
KST3 052325Z 01014KT 14/01 A3026 RMK A01 T01380014  RH  043%=      5-min Rain = 0
KST3 052326Z 02013KT 14/01 A3026 RMK A01 T01390014  RH  043%=      5-min Rain = 0
KST3 052327Z 02013KT 14/01 A3026 RMK A01 T01390013  RH  042%=      5-min Rain = 0
KST3 052328Z 02010KT 14/01 A3026 RMK A01 T01390012  RH  042%=      5-min Rain = 0
KST3 052329Z 02012KT 14/01 A3026 RMK A01 T01400013  RH  042%=      5-min Rain = 0
KST3 052330Z 02010KT 14/01 A3026 RMK A01 T01410013  RH  042%=      5-min Rain = 0
KST3 052331Z 04010KT 14/01 A3026 RMK A01 T01410012  RH  041%=      5-min Rain = 0
KST3 052332Z 04012KT 14/01 A3026 RMK A01 T01420012  RH  041%=      5-min Rain = 0
KST3 052333Z 04010KT 14/01 A3026 RMK A01 T01410012  RH  041%=      5-min Rain = 0
KST3 052334Z 02009KT 14/01 A3026 RMK A01 T01410013  RH  042%=      5-min Rain = 0
KST3 052335Z 02009KT 14/01 A3026 RMK A01 T01410013  RH  042%=      5-min Rain = 0
KST3 052336Z 02009KT 14/01 A3026 RMK A01 T01420014  RH  042%=      5-min Rain = 0
KST3 052337Z 01012KT 14/01 A3026 RMK A01 T01430013  RH  041%=      5-min Rain = 0
KST3 052338Z 01012KT 14/01 A3026 RMK A01 T01440011  RH  040%=      5-min Rain = 0
KST3 052339Z 02013KT 14/01 A3026 RMK A01 T01440011  RH  041%=      5-min Rain = 0
KST3 052340Z 02011KT 14/01 A3026 RMK A01 T01440012  RH  041%=      5-min Rain = 0
KST3 052341Z 01014KT 14/01 A3026 RMK A01 T01440011  RH  040%=      5-min Rain = 0
KST3 052342Z 01013KT 14/01 A3026 RMK A01 T01440010  RH  040%=      5-min Rain = 0
KST3 052343Z 02013KT 14/01 A3026 RMK A01 T01440010  RH  040%=      5-min Rain = 0
KST3 052344Z 03016KT 14/01 A3026 RMK A01 T01440011  RH  040%=      5-min Rain = 0
KST3 052345Z 04015KT 14/01 A3027 RMK A01 T01430013  RH  041%=      5-min Rain = 0
KST3 052346Z 04013KT 14/01 A3027 RMK A01 T01420014  RH  042%=      5-min Rain = 0
KST3 052347Z 04014KT 14/01 A3026 RMK A01 T01410014  RH  042%=      5-min Rain = 0
KST3 052348Z 05012KT 14/01 A3026 RMK A01 T01390014  RH  043%=      5-min Rain = 0
KST3 052349Z 05013KT 14/01 A3026 RMK A01 T01380014  RH  043%=      5-min Rain = 0
KST3 052350Z 05013KT 14/01 A3026 RMK A01 T01370014  RH  043%=      5-min Rain = 0
KST3 052351Z 04015KT 14/01 A3026 RMK A01 T01350014  RH  044%=      5-min Rain = 0
KST3 052352Z 04012KT 13/01 A3026 RMK A01 T01340014  RH  044%=      5-min Rain = 0
KST3 052353Z 04012KT 13/01 A3026 RMK A01 T01320014  RH  044%=      5-min Rain = 0
KST3 052354Z 03013KT 13/01 A3027 RMK A01 T01310012  RH  044%=      5-min Rain = 0
KST3 052355Z 04012KT 13/01 A3026 RMK A01 T01310012  RH  044%=      5-min Rain = 0
KST3 052356Z 03010KT 13/01 A3026 RMK A01 T01300011  RH  044%=      5-min Rain = 0
KST3 052357Z 03010KT 13/01 A3026 RMK A01 T01290010  RH  044%=      5-min Rain = 0
KST3 052358Z 03010KT 13/01 A3027 RMK A01 T01280009  RH  044%=      5-min Rain = 0
KST3 052359Z 03009KT 13/01 A3026 RMK A01 T01280008  RH  044%=      5-min Rain = 0
KST3 060000Z 03009KT 13/01 A3026 RMK A01 T01270008  RH  044%=      5-min Rain = 0
KST3 060001Z 03010KT 13/01 A3026 RMK A01 T01270007  RH  044%=      5-min Rain = 0
KST3 060002Z 03010KT 13/01 A3026 RMK A01 T01270007  RH  044%=      5-min Rain = 0
KST3 060003Z 04010KT 13/01 A3026 RMK A01 T01280007  RH  044%=      5-min Rain = 0
KST3 060004Z 03010G16KT 13/01 A3026 RMK A01 T01290007  RH  043%=      5-min Rain = 0
KST3 060005Z 03012KT 13/01 A3026 RMK A01 T01290007  RH  043%=      5-min Rain = 0
KST3 060006Z 03012KT 13/01 A3026 RMK A01 T01290006  RH  043%=      5-min Rain = 0
KST3 060007Z 04012KT 13/01 A3026 RMK A01 T01300006  RH  043%=      5-min Rain = 0
KST3 060008Z 03012KT 13/01 A3026 RMK A01 T01300005  RH  042%=      5-min Rain = 0
KST3 060009Z 04011KT 13/01 A3026 RMK A01 T01300005  RH  042%=      5-min Rain = 0
KST3 060010Z 03012KT 13/01 A3027 RMK A01 T01300005  RH  042%=      5-min Rain = 0
KST3 060011Z 04013KT 13/01 A3027 RMK A01 T01300005  RH  042%=      5-min Rain = 0
KST3 060012Z 03011KT 13/00 A3026 RMK A01 T01300004  RH  042%=      5-min Rain = 0
KST3 060013Z 03011KT 13/00 A3026 RMK A01 T01290004  RH  042%=      5-min Rain = 0
KST3 060014Z 03011KT 13/00 A3027 RMK A01 T01280003  RH  042%=      5-min Rain = 0
KST3 060015Z 03010KT 13/00 A3026 RMK A01 T01280003  RH  042%=      5-min Rain = 0
KST3 060016Z 03010KT 13/00 A3027 RMK A01 T01270002  RH  042%=      5-min Rain = 0
KST3 060017Z 03010KT 13/00 A3027 RMK A01 T01260002  RH  043%=      5-min Rain = 0
KST3 060018Z 03011KT 13/00 A3027 RMK A01 T01260002  RH  043%=      5-min Rain = 0
KST3 060019Z 03010KT 13/00 A3027 RMK A01 T01260003  RH  043%=      5-min Rain = 0
KST3 060020Z 03010KT 13/00 A3027 RMK A01 T01250003  RH  043%=      5-min Rain = 0
KST3 060021Z 03010KT 13/00 A3027 RMK A01 T01250003  RH  043%=      5-min Rain = 0
KST3 060022Z 03010KT 13/00 A3027 RMK A01 T01250004  RH  043%=      5-min Rain = 0
KST3 060023Z 04009KT 12/00 A3027 RMK A01 T01240004  RH  044%=      5-min Rain = 0
KST3 060024Z 03009KT 12/00 A3027 RMK A01 T01230004  RH  044%=      5-min Rain = 0
KST3 060025Z 03009KT 12/00 A3027 RMK A01 T01220004  RH  044%=      5-min Rain = 0
KST3 060026Z 04009KT 12/00 A3027 RMK A01 T01210003  RH  044%=      5-min Rain = 0
KST3 060027Z 04009KT 12/00 A3027 RMK A01 T01210004  RH  045%=      5-min Rain = 0
KST3 060028Z 03008KT 12/00 A3027 RMK A01 T01200003  RH  045%=      5-min Rain = 0
KST3 060029Z 03008KT 12/00 A3027 RMK A01 T01190003  RH  045%=      5-min Rain = 0
KST3 060030Z 03008KT 12/00 A3027 RMK A01 T01180003  RH  045%=      5-min Rain = 0
KST3 060031Z 03008KT 12/00 A3027 RMK A01 T01170002  RH  045%=      5-min Rain = 0
KST3 060032Z 03007KT 12/00 A3027 RMK A01 T01160003  RH  046%=      5-min Rain = 0
KST3 060033Z 03008KT 12/00 A3027 RMK A01 T01150002  RH  046%=      5-min Rain = 0
KST3 060034Z 03007KT 11/00 A3027 RMK A01 T01140002  RH  046%=      5-min Rain = 0
KST3 060035Z 03007KT 11/00 A3027 RMK A01 T01110001  RH  047%=      5-min Rain = 0
KST3 060036Z 02008KT 11/00 A3028 RMK A01 T01090001  RH  047%=      5-min Rain = 0
KST3 060037Z 02008KT 11/00 A3028 RMK A01 T01080002  RH  048%=      5-min Rain = 0
KST3 060038Z 02008KT 11/00 A3028 RMK A01 T01070002  RH  048%=      5-min Rain = 0
KST3 060039Z 02008KT 11/00 A3028 RMK A01 T01060002  RH  048%=      5-min Rain = 0
KST3 060040Z 02008KT 11/00 A3028 RMK A01 T01050001  RH  049%=      5-min Rain = 0
KST3 060041Z 02008KT 10/00 A3028 RMK A01 T01040001  RH  049%=      5-min Rain = 0
KST3 060042Z 02008KT 10/00 A3028 RMK A01 T01030001  RH  049%=      5-min Rain = 0
KST3 060043Z 02008KT 10/00 A3028 RMK A01 T01020001  RH  049%=      5-min Rain = 0
KST3 060044Z 02008KT 10/00 A3028 RMK A01 T01010001  RH  050%=      5-min Rain = 0
KST3 060045Z 02007KT 10/00 A3028 RMK A01 T01010001  RH  050%=      5-min Rain = 0
KST3 060046Z 02007KT 10/00 A3028 RMK A01 T01000001  RH  050%=      5-min Rain = 0
KST3 060047Z 02007KT 10/00 A3028 RMK A01 T00990000  RH  050%=      5-min Rain = 0
KST3 060048Z 02007KT 10/00 A3028 RMK A01 T009800-0  RH  050%=      5-min Rain = 0
KST3 060049Z 02007KT 10/00 A3028 RMK A01 T009700-0  RH  051%=      5-min Rain = 0
KST3 060050Z 02007KT 10/00 A3028 RMK A01 T009600-0  RH  051%=      5-min Rain = 0
KST3 060051Z 03008KT 10/00 A3028 RMK A01 T009600-0  RH  051%=      5-min Rain = 0
KST3 060052Z 03008KT 10/00 A3028 RMK A01 T00960000  RH  051%=      5-min Rain = 0
KST3 060053Z 02007KT 10/00 A3028 RMK A01 T009500-0  RH  051%=      5-min Rain = 0
KST3 060054Z 03007KT 10/00 A3028 RMK A01 T009500-0  RH  051%=      5-min Rain = 0
KST3 060055Z 03007KT 09/00 A3028 RMK A01 T009400-0  RH  052%=      5-min Rain = 0
KST3 060056Z 03007KT 09/00 A3028 RMK A01 T009400-0  RH  052%=      5-min Rain = 0
KST3 060057Z 03007KT 09/M00 A3028 RMK A01 T00941001  RH  052%=      5-min Rain = 0
KST3 060058Z 03007KT 09/M00 A3028 RMK A01 T00941001  RH  052%=      5-min Rain = 0
KST3 060059Z 03007KT 09/M00 A3028 RMK A01 T00941001  RH  052%=      5-min Rain = 0
KST3 060100Z 03007KT 09/M00 A3028 RMK A01 T00941001  RH  052%=      5-min Rain = 0
KST3 060101Z 02007KT 09/M00 A3028 RMK A01 T00921002  RH  052%=      5-min Rain = 0
KST3 060102Z 02007KT 09/M00 A3028 RMK A01 T00901003  RH  052%=      5-min Rain = 0
KST3 060103Z 02007KT 09/M00 A3028 RMK A01 T00881003  RH  053%=      5-min Rain = 0
KST3 060104Z 02007KT 09/M00 A3028 RMK A01 T00871003  RH  053%=      5-min Rain = 0
KST3 060105Z 02007KT 09/M00 A3028 RMK A01 T00861003  RH  054%=      5-min Rain = 0
KST3 060106Z 02007KT 09/M00 A3028 RMK A01 T00851003  RH  054%=      5-min Rain = 0
KST3 060107Z 02007KT 09/M00 A3028 RMK A01 T00851002  RH  054%=      5-min Rain = 0
KST3 060108Z 02006KT 09/M00 A3028 RMK A01 T00851003  RH  054%=      5-min Rain = 0
KST3 060109Z 02006KT 08/M00 A3028 RMK A01 T00841003  RH  054%=      5-min Rain = 0
KST3 060110Z 02006KT 08/M00 A3028 RMK A01 T00831003  RH  054%=      5-min Rain = 0
KST3 060111Z 02006KT 08/M00 A3028 RMK A01 T00831003  RH  055%=      5-min Rain = 0
KST3 060112Z 02006KT 08/M00 A3028 RMK A01 T00821004  RH  055%=      5-min Rain = 0
KST3 060113Z 02006KT 08/M00 A3028 RMK A01 T00811004  RH  055%=      5-min Rain = 0
KST3 060114Z 02006KT 08/M00 A3028 RMK A01 T00811003  RH  055%=      5-min Rain = 0
KST3 060115Z 02006KT 08/M00 A3028 RMK A01 T00801004  RH  056%=      5-min Rain = 0
KST3 060116Z 02006KT 08/M00 A3028 RMK A01 T00791004  RH  056%=      5-min Rain = 0
KST3 060117Z 02006KT 08/M00 A3028 RMK A01 T00791004  RH  056%=      5-min Rain = 0
KST3 060118Z 02006KT 08/M00 A3029 RMK A01 T00791003  RH  056%=      5-min Rain = 0
KST3 060119Z 02006KT 08/M00 A3029 RMK A01 T00791004  RH  056%=      5-min Rain = 0
KST3 060120Z 02006KT 08/M00 A3029 RMK A01 T00791004  RH  056%=      5-min Rain = 0
KST3 060121Z 02006KT 08/M00 A3029 RMK A01 T00781003  RH  056%=      5-min Rain = 0
KST3 060122Z 02006KT 08/M00 A3029 RMK A01 T00781004  RH  056%=      5-min Rain = 0
KST3 060123Z 02006KT 08/M00 A3029 RMK A01 T00781003  RH  057%=      5-min Rain = 0
KST3 060124Z 02006KT 08/M00 A3029 RMK A01 T00771004  RH  056%=      5-min Rain = 0
KST3 060125Z 02005KT 08/M00 A3029 RMK A01 T00781003  RH  057%=      5-min Rain = 0
KST3 060126Z 02005KT 08/M00 A3029 RMK A01 T00781003  RH  056%=      5-min Rain = 0
KST3 060127Z 02005KT 08/M00 A3029 RMK A01 T00781003  RH  056%=      5-min Rain = 0
KST3 060128Z 02006KT 08/M00 A3029 RMK A01 T00791003  RH  056%=      5-min Rain = 0
KST3 060129Z 02006KT 08/M00 A3029 RMK A01 T00781004  RH  056%=      5-min Rain = 0
KST3 060130Z 02006KT 08/M00 A3029 RMK A01 T00781004  RH  056%=      5-min Rain = 0
KST3 060131Z 02006KT 08/M00 A3029 RMK A01 T00771004  RH  056%=      5-min Rain = 0
KST3 060132Z 02006KT 08/M01 A3029 RMK A01 T00761005  RH  056%=      5-min Rain = 0
KST3 060133Z 02006KT 08/M01 A3029 RMK A01 T00751005  RH  057%=      5-min Rain = 0
KST3 060134Z 02006KT 08/M01 A3029 RMK A01 T00751005  RH  057%=      5-min Rain = 0
KST3 060135Z 02006KT 07/M01 A3029 RMK A01 T00741005  RH  057%=      5-min Rain = 0
KST3 060136Z 02006KT 07/M01 A3029 RMK A01 T00741005  RH  057%=      5-min Rain = 0
KST3 060137Z 02006KT 07/M01 A3029 RMK A01 T00741005  RH  057%=      5-min Rain = 0
KST3 060138Z 02006KT 07/M01 A3029 RMK A01 T00741005  RH  057%=      5-min Rain = 0
KST3 060139Z 02006KT 07/M01 A3029 RMK A01 T00741006  RH  057%=      5-min Rain = 0
KST3 060140Z 02006KT 07/M01 A3029 RMK A01 T00741006  RH  057%=      5-min Rain = 0
KST3 060141Z 02006KT 07/M01 A3029 RMK A01 T00731006  RH  057%=      5-min Rain = 0
KST3 060142Z 02006KT 07/M01 A3029 RMK A01 T00721006  RH  057%=      5-min Rain = 0
KST3 060143Z 03007KT 07/M01 A3029 RMK A01 T00711007  RH  058%=      5-min Rain = 0
KST3 060144Z 03006KT 07/M01 A3029 RMK A01 T00711006  RH  058%=      5-min Rain = 0
KST3 060145Z 03006KT 07/M01 A3029 RMK A01 T00711006  RH  058%=      5-min Rain = 0
KST3 060146Z 03006KT 07/M01 A3029 RMK A01 T00711006  RH  058%=      5-min Rain = 0
KST3 060147Z 03006KT 07/M01 A3029 RMK A01 T00721006  RH  058%=      5-min Rain = 0
KST3 060148Z 03006KT 07/M01 A3029 RMK A01 T00721005  RH  058%=      5-min Rain = 0
KST3 060149Z 03006KT 07/M00 A3029 RMK A01 T00741004  RH  058%=      5-min Rain = 0
KST3 060150Z 03006KT 07/M01 A3029 RMK A01 T00741005  RH  057%=      5-min Rain = 0
KST3 060151Z 03006KT 07/M01 A3029 RMK A01 T00741005  RH  057%=      5-min Rain = 0
KST3 060152Z 03006KT 08/M00 A3029 RMK A01 T00751004  RH  057%=      5-min Rain = 0
KST3 060153Z 03006KT 08/M01 A3029 RMK A01 T00751005  RH  057%=      5-min Rain = 0
KST3 060154Z 03006KT 08/M00 A3029 RMK A01 T00751004  RH  057%=      5-min Rain = 0
KST3 060155Z 03005KT 08/M00 A3029 RMK A01 T00751004  RH  057%=      5-min Rain = 0
KST3 060156Z 03005KT 08/M01 A3029 RMK A01 T00751005  RH  057%=      5-min Rain = 0
KST3 060157Z 03005KT 08/M01 A3029 RMK A01 T00751005  RH  057%=      5-min Rain = 0
KST3 060158Z 03005KT 08/M01 A303 RMK A01 T00751005  RH  057%=      5-min Rain = 0
KST3 060159Z 03005KT 08/M01 A303 RMK A01 T00751005  RH  057%=      5-min Rain = 0
KST3 060200Z 03005KT 08/M00 A303 RMK A01 T00751004  RH  057%=      5-min Rain = 0
KST3 060201Z 03005KT 08/M01 A303 RMK A01 T00751005  RH  057%=      5-min Rain = 0
KST3 060202Z 02005KT 08/M01 A303 RMK A01 T00751005  RH  057%=      5-min Rain = 0
KST3 060203Z 02005KT 08/M01 A303 RMK A01 T00751005  RH  057%=      5-min Rain = 0
KST3 060204Z 02005KT 08/M01 A303 RMK A01 T00751005  RH  057%=      5-min Rain = 0
KST3 060205Z 02005KT 08/M00 A303 RMK A01 T00751004  RH  057%=      5-min Rain = 0
KST3 060206Z 02005KT 08/M01 A303 RMK A01 T00751005  RH  057%=      5-min Rain = 0
KST3 060207Z 02005KT 08/M01 A303 RMK A01 T00751005  RH  057%=      5-min Rain = 0
KST3 060208Z 02005KT 07/M01 A303 RMK A01 T00741005  RH  057%=      5-min Rain = 0
KST3 060209Z 02005KT 07/M00 A303 RMK A01 T00741004  RH  057%=      5-min Rain = 0
KST3 060210Z 02005KT 07/M01 A303 RMK A01 T00741005  RH  057%=      5-min Rain = 0
KST3 060211Z 02005KT 07/M01 A303 RMK A01 T00731005  RH  058%=      5-min Rain = 0
KST3 060212Z 03005KT 07/M01 A303 RMK A01 T00731005  RH  058%=      5-min Rain = 0
KST3 060213Z 03005KT 07/M01 A303 RMK A01 T00721005  RH  058%=      5-min Rain = 0
KST3 060214Z 03005KT 07/M01 A303 RMK A01 T00721005  RH  058%=      5-min Rain = 0
KST3 060215Z 03005KT 07/M01 A303 RMK A01 T00711005  RH  058%=      5-min Rain = 0
KST3 060216Z 03005KT 07/M01 A303 RMK A01 T00711005  RH  058%=      5-min Rain = 0
KST3 060217Z 03005KT 07/M01 A303 RMK A01 T00711005  RH  058%=      5-min Rain = 0
KST3 060218Z 02004KT 07/M01 A303 RMK A01 T00721005  RH  058%=      5-min Rain = 0
KST3 060219Z 02005KT 07/M01 A303 RMK A01 T00711005  RH  058%=      5-min Rain = 0
KST3 060220Z 03005KT 07/M01 A303 RMK A01 T00711005  RH  058%=      5-min Rain = 0
KST3 060221Z 02005KT 07/M01 A303 RMK A01 T00711005  RH  058%=      5-min Rain = 0
KST3 060222Z 03004KT 07/M01 A303 RMK A01 T00711005  RH  058%=      5-min Rain = 0
KST3 060223Z 03005KT 07/M01 A303 RMK A01 T00721005  RH  058%=      5-min Rain = 0
KST3 060224Z 03005KT 07/M01 A303 RMK A01 T00711005  RH  058%=      5-min Rain = 0
KST3 060225Z 03005KT 07/M01 A303 RMK A01 T00711005  RH  058%=      5-min Rain = 0
KST3 060226Z 03005KT 07/M01 A303 RMK A01 T00721005  RH  058%=      5-min Rain = 0
KST3 060227Z 03005KT 07/M01 A303 RMK A01 T00721005  RH  058%=      5-min Rain = 0
KST3 060228Z 03005KT 07/M00 A303 RMK A01 T00721004  RH  058%=      5-min Rain = 0
KST3 060229Z 03005KT 07/M00 A303 RMK A01 T00721004  RH  059%=      5-min Rain = 0
KST3 060230Z 03005KT 07/M00 A303 RMK A01 T00721004  RH  059%=      5-min Rain = 0
KST3 060231Z 03005KT 07/M00 A303 RMK A01 T00721004  RH  059%=      5-min Rain = 0
KST3 060232Z 03004KT 07/M00 A303 RMK A01 T00731003  RH  058%=      5-min Rain = 0
KST3 060233Z 03004KT 07/M00 A303 RMK A01 T00731004  RH  058%=      5-min Rain = 0
KST3 060234Z 03004KT 07/M00 A303 RMK A01 T00731004  RH  058%=      5-min Rain = 0
KST3 060235Z 03004KT 07/M00 A303 RMK A01 T00721004  RH  058%=      5-min Rain = 0
KST3 060236Z 03005KT 07/M00 A303 RMK A01 T00721004  RH  058%=      5-min Rain = 0
KST3 060237Z 03004KT 07/M00 A303 RMK A01 T00721003  RH  059%=      5-min Rain = 0
KST3 060238Z 02004KT 07/M00 A3031 RMK A01 T00721004  RH  058%=      5-min Rain = 0
KST3 060239Z 03004KT 07/M00 A3031 RMK A01 T00731003  RH  059%=      5-min Rain = 0
KST3 060240Z 03004KT 07/M00 A3031 RMK A01 T00741002  RH  058%=      5-min Rain = 0
KST3 060241Z 03004KT 07/M00 A3031 RMK A01 T00741003  RH  058%=      5-min Rain = 0
KST3 060242Z 04004KT 07/M00 A3031 RMK A01 T00741003  RH  058%=      5-min Rain = 0
KST3 060243Z 04004KT 07/M00 A3031 RMK A01 T00741002  RH  059%=      5-min Rain = 0
KST3 060244Z 04005KT 08/M00 A3031 RMK A01 T00751001  RH  059%=      5-min Rain = 0
KST3 060245Z 04004KT 08/M00 A3031 RMK A01 T00751001  RH  059%=      5-min Rain = 0
KST3 060246Z 04004KT 08/M00 A3031 RMK A01 T00751002  RH  058%=      5-min Rain = 0
KST3 060247Z 04005KT 07/M00 A3031 RMK A01 T00741002  RH  059%=      5-min Rain = 0
KST3 060248Z 03005KT 07/00 A3031 RMK A01 T007400-0  RH  059%=      5-min Rain = 0
KST3 060249Z 04004KT 07/M00 A3031 RMK A01 T00741001  RH  059%=      5-min Rain = 0
KST3 060250Z 03004KT 08/M00 A3031 RMK A01 T00751001  RH  059%=      5-min Rain = 0
KST3 060251Z 04005KT 07/M00 A3031 RMK A01 T00741001  RH  059%=      5-min Rain = 0
KST3 060252Z 03004KT 07/M00 A3031 RMK A01 T00731001  RH  059%=      5-min Rain = 0
KST3 060253Z 03004KT 07/M00 A3031 RMK A01 T00731002  RH  059%=      5-min Rain = 0
KST3 060254Z 03004KT 07/M00 A3031 RMK A01 T00731001  RH  059%=      5-min Rain = 0
KST3 060255Z 03004KT 07/M00 A3031 RMK A01 T00721002  RH  059%=      5-min Rain = 0
KST3 060256Z 03004KT 07/M00 A3031 RMK A01 T00711002  RH  060%=      5-min Rain = 0
KST3 060257Z 03004KT 07/M00 A3031 RMK A01 T00721001  RH  060%=      5-min Rain = 0
KST3 060258Z 03004KT 07/M00 A3031 RMK A01 T00711001  RH  060%=      5-min Rain = 0
KST3 060259Z 03005KT 07/M00 A3031 RMK A01 T00711002  RH  060%=      5-min Rain = 0
KST3 060300Z 03005KT 07/M00 A3031 RMK A01 T00711002  RH  060%=      5-min Rain = 0
KST3 060301Z 03005KT 07/M00 A3031 RMK A01 T00711001  RH  060%=      5-min Rain = 0
KST3 060302Z 03005KT 07/M00 A3031 RMK A01 T00701002  RH  060%=      5-min Rain = 0
KST3 060303Z 03005KT 07/M00 A3031 RMK A01 T00701001  RH  060%=      5-min Rain = 0
KST3 060304Z 03005KT 07/M00 A3032 RMK A01 T00701002  RH  060%=      5-min Rain = 0
KST3 060305Z 03005KT 07/M00 A3032 RMK A01 T00691001  RH  061%=      5-min Rain = 0
KST3 060306Z 03005KT 07/M00 A3032 RMK A01 T00691001  RH  061%=      5-min Rain = 0
KST3 060307Z 03004KT 07/M00 A3032 RMK A01 T00701001  RH  061%=      5-min Rain = 0
KST3 060308Z 03004KT 07/M00 A3032 RMK A01 T00701001  RH  061%=      5-min Rain = 0
KST3 060309Z 03004KT 07/M00 A3032 RMK A01 T00701001  RH  061%=      5-min Rain = 0
KST3 060310Z 03004KT 07/00 A3032 RMK A01 T007100-0  RH  061%=      5-min Rain = 0
KST3 060311Z 02004KT 07/00 A3032 RMK A01 T007100-0  RH  060%=      5-min Rain = 0
KST3 060312Z 03004KT 07/M00 A3032 RMK A01 T00711001  RH  060%=      5-min Rain = 0
KST3 060313Z 02004KT 07/00 A3032 RMK A01 T00720000  RH  060%=      5-min Rain = 0
KST3 060314Z 03004KT 07/00 A3032 RMK A01 T007200-0  RH  060%=      5-min Rain = 0
KST3 060315Z 03004KT 07/00 A3032 RMK A01 T007200-0  RH  060%=      5-min Rain = 0
KST3 060316Z 03004KT 07/00 A3032 RMK A01 T007300-0  RH  060%=      5-min Rain = 0
KST3 060317Z 03003KT 07/00 A3032 RMK A01 T007300-0  RH  060%=      5-min Rain = 0
KST3 060318Z 03003KT 07/M00 A3032 RMK A01 T00731001  RH  060%=      5-min Rain = 0
KST3 060319Z 03003KT 07/00 A3032 RMK A01 T00730000  RH  060%=      5-min Rain = 0
KST3 060320Z 03004KT 07/00 A3032 RMK A01 T007200-0  RH  060%=      5-min Rain = 0
KST3 060321Z 02004KT 07/00 A3032 RMK A01 T00720000  RH  060%=      5-min Rain = 0
KST3 060322Z 03004KT 07/00 A3032 RMK A01 T00720000  RH  060%=      5-min Rain = 0
KST3 060323Z 02004KT 07/00 A3032 RMK A01 T00720000  RH  060%=      5-min Rain = 0
KST3 060324Z 02003KT 07/00 A3032 RMK A01 T00720000  RH  060%=      5-min Rain = 0
KST3 060325Z 02003KT 07/00 A3032 RMK A01 T00720000  RH  060%=      5-min Rain = 0
KST3 060326Z 02004KT 07/00 A3032 RMK A01 T007100-0  RH  060%=      5-min Rain = 0
KST3 060327Z 03004KT 07/00 A3032 RMK A01 T007000-0  RH  061%=      5-min Rain = 0
KST3 060328Z 02003KT 07/00 A3032 RMK A01 T00700000  RH  061%=      5-min Rain = 0
KST3 060329Z 03004KT 07/00 A3032 RMK A01 T00700000  RH  061%=      5-min Rain = 0
KST3 060330Z 03003KT 07/00 A3032 RMK A01 T00700001  RH  061%=      5-min Rain = 0
KST3 060331Z 03003KT 07/00 A3032 RMK A01 T00710001  RH  061%=      5-min Rain = 0
KST3 060332Z 02003KT 07/00 A3032 RMK A01 T00710001  RH  061%=      5-min Rain = 0
KST3 060333Z 03003KT 07/00 A3032 RMK A01 T00710001  RH  061%=      5-min Rain = 0
KST3 060334Z 03003KT 07/00 A3032 RMK A01 T00720001  RH  061%=      5-min Rain = 0
KST3 060335Z 03003KT 07/00 A3032 RMK A01 T00720002  RH  061%=      5-min Rain = 0
KST3 060336Z 03003KT 07/00 A3032 RMK A01 T00720001  RH  061%=      5-min Rain = 0
KST3 060337Z 04003KT 07/00 A3032 RMK A01 T00720001  RH  061%=      5-min Rain = 0
KST3 060338Z 04003KT 07/00 A3032 RMK A01 T00720001  RH  061%=      5-min Rain = 0
KST3 060339Z 04003KT 07/00 A3032 RMK A01 T00720002  RH  061%=      5-min Rain = 0
KST3 060340Z 05003KT 07/00 A3032 RMK A01 T00720001  RH  061%=      5-min Rain = 0
KST3 060341Z 05003KT 07/00 A3032 RMK A01 T00720002  RH  061%=      5-min Rain = 0
KST3 060342Z 05003KT 07/00 A3032 RMK A01 T00720002  RH  061%=      5-min Rain = 0
KST3 060343Z 05003KT 07/00 A3032 RMK A01 T00720003  RH  061%=      5-min Rain = 0
KST3 060344Z 05003KT 07/00 A3032 RMK A01 T00720002  RH  061%=      5-min Rain = 0
KST3 060345Z 06003KT 07/00 A3032 RMK A01 T00720002  RH  061%=      5-min Rain = 0
KST3 060346Z 05003KT 07/00 A3032 RMK A01 T00720003  RH  061%=      5-min Rain = 0
KST3 060347Z 06003KT 07/00 A3032 RMK A01 T00730003  RH  061%=      5-min Rain = 0
KST3 060348Z 06004KT 07/00 A3032 RMK A01 T00740004  RH  061%=      5-min Rain = 0
KST3 060349Z 06004KT 07/00 A3032 RMK A01 T00740004  RH  061%=      5-min Rain = 0
KST3 060350Z 06003KT 08/00 A3032 RMK A01 T00750004  RH  061%=      5-min Rain = 0
KST3 060351Z 06004KT 08/00 A3032 RMK A01 T00750004  RH  061%=      5-min Rain = 0
KST3 060352Z 06004KT 08/00 A3032 RMK A01 T00760004  RH  061%=      5-min Rain = 0
KST3 060353Z 07003KT 08/00 A3032 RMK A01 T00760004  RH  060%=      5-min Rain = 0
KST3 060354Z 07004KT 08/00 A3032 RMK A01 T00760004  RH  060%=      5-min Rain = 0
KST3 060355Z 07004KT 08/00 A3032 RMK A01 T00750004  RH  060%=      5-min Rain = 0
KST3 060356Z 07003KT 08/00 A3032 RMK A01 T00750004  RH  061%=      5-min Rain = 0
KST3 060357Z 07003KT 08/00 A3032 RMK A01 T00750004  RH  061%=      5-min Rain = 0
KST3 060358Z 07003KT 08/00 A3033 RMK A01 T00750004  RH  061%=      5-min Rain = 0
KST3 060359Z 07003KT 08/00 A3032 RMK A01 T00750004  RH  061%=      5-min Rain = 0
KST3 060400Z 07003KT 08/00 A3032 RMK A01 T00750004  RH  061%=      5-min Rain = 0
KST3 060401Z 07003KT 08/01 A3032 RMK A01 T00750005  RH  061%=      5-min Rain = 0
KST3 060402Z 07003KT 08/01 A3032 RMK A01 T00750005  RH  061%=      5-min Rain = 0
KST3 060403Z 07003KT 08/01 A3032 RMK A01 T00750005  RH  061%=      5-min Rain = 0
KST3 060404Z 07003KT 07/00 A3032 RMK A01 T00740004  RH  061%=      5-min Rain = 0
KST3 060405Z 07003KT 07/00 A3032 RMK A01 T00730004  RH  062%=      5-min Rain = 0
KST3 060406Z 08003KT 07/00 A3032 RMK A01 T00720004  RH  062%=      5-min Rain = 0
KST3 060407Z 08003KT 07/00 A3033 RMK A01 T00720004  RH  062%=      5-min Rain = 0
KST3 060408Z 08003KT 07/00 A3033 RMK A01 T00710004  RH  062%=      5-min Rain = 0
KST3 060409Z 08003KT 07/00 A3033 RMK A01 T00720004  RH  062%=      5-min Rain = 0
KST3 060410Z 08003KT 07/01 A3033 RMK A01 T00720005  RH  062%=      5-min Rain = 0
KST3 060411Z 08002KT 07/00 A3033 RMK A01 T00710004  RH  062%=      5-min Rain = 0
KST3 060412Z 08002KT 07/00 A3033 RMK A01 T00710004  RH  062%=      5-min Rain = 0
KST3 060413Z 08002KT 07/00 A3033 RMK A01 T00700004  RH  063%=      5-min Rain = 0
KST3 060414Z 08003KT 07/00 A3033 RMK A01 T00690004  RH  063%=      5-min Rain = 0
KST3 060415Z 08003KT 07/00 A3033 RMK A01 T00680004  RH  063%=      5-min Rain = 0
KST3 060416Z 08002KT 07/00 A3033 RMK A01 T00680004  RH  064%=      5-min Rain = 0
KST3 060417Z 08002KT 07/00 A3033 RMK A01 T00680004  RH  064%=      5-min Rain = 0
KST3 060418Z 08002KT 07/00 A3033 RMK A01 T00670004  RH  064%=      5-min Rain = 0
KST3 060419Z 07002KT 07/00 A3033 RMK A01 T00670004  RH  064%=      5-min Rain = 0
KST3 060420Z 07002KT 07/00 A3033 RMK A01 T00660004  RH  064%=      5-min Rain = 0
KST3 060421Z 07002KT 07/00 A3033 RMK A01 T00660004  RH  064%=      5-min Rain = 0
KST3 060422Z 08002KT 07/00 A3033 RMK A01 T00660004  RH  065%=      5-min Rain = 0
KST3 060423Z 09002KT 07/00 A3033 RMK A01 T00660004  RH  065%=      5-min Rain = 0
KST3 060424Z 10002KT 07/00 A3033 RMK A01 T00660004  RH  065%=      5-min Rain = 0
KST3 060425Z 11002KT 07/01 A3033 RMK A01 T00670005  RH  064%=      5-min Rain = 0
KST3 060426Z 12002KT 07/01 A3033 RMK A01 T00670005  RH  064%=      5-min Rain = 0
KST3 060427Z 12002KT 07/01 A3033 RMK A01 T00680005  RH  064%=      5-min Rain = 0
KST3 060428Z 12002KT 07/01 A3033 RMK A01 T00680005  RH  064%=      5-min Rain = 0
KST3 060429Z 12002KT 07/01 A3033 RMK A01 T00680006  RH  065%=      5-min Rain = 0
KST3 060430Z 13002KT 07/01 A3033 RMK A01 T00670006  RH  065%=      5-min Rain = 0
KST3 060431Z 13002KT 07/01 A3033 RMK A01 T00670007  RH  065%=      5-min Rain = 0
KST3 060432Z 13002KT 07/01 A3033 RMK A01 T00680007  RH  065%=      5-min Rain = 0
KST3 060433Z 13002KT 07/01 A3033 RMK A01 T00680007  RH  065%=      5-min Rain = 0
KST3 060434Z 13002KT 07/01 A3033 RMK A01 T00700007  RH  065%=      5-min Rain = 0
KST3 060435Z 13002KT 07/01 A3033 RMK A01 T00700008  RH  064%=      5-min Rain = 0
KST3 060436Z 13002KT 07/01 A3033 RMK A01 T00700007  RH  064%=      5-min Rain = 0
KST3 060437Z 13002KT 07/01 A3033 RMK A01 T00710007  RH  064%=      5-min Rain = 0
KST3 060438Z 13002KT 07/01 A3033 RMK A01 T00710007  RH  064%=      5-min Rain = 0
KST3 060439Z 13002KT 07/01 A3033 RMK A01 T00710007  RH  064%=      5-min Rain = 0
KST3 060440Z 13002KT 07/01 A3033 RMK A01 T00710008  RH  064%=      5-min Rain = 0
KST3 060441Z 13002KT 07/01 A3033 RMK A01 T00720007  RH  064%=      5-min Rain = 0
KST3 060442Z 13002KT 07/01 A3033 RMK A01 T00720008  RH  064%=      5-min Rain = 0
KST3 060443Z 14002KT 07/01 A3033 RMK A01 T00720008  RH  064%=      5-min Rain = 0
KST3 060444Z 14003KT 07/01 A3033 RMK A01 T00720008  RH  064%=      5-min Rain = 0
KST3 060445Z 14003KT 07/01 A3033 RMK A01 T00720008  RH  064%=      5-min Rain = 0
KST3 060446Z 14003KT 07/01 A3033 RMK A01 T00720008  RH  064%=      5-min Rain = 0
KST3 060447Z 14003KT 07/01 A3033 RMK A01 T00730008  RH  064%=      5-min Rain = 0
KST3 060448Z 14003KT 07/01 A3033 RMK A01 T00730009  RH  064%=      5-min Rain = 0
KST3 060449Z 14003KT 07/01 A3033 RMK A01 T00730009  RH  063%=      5-min Rain = 0
KST3 060450Z 14003KT 07/01 A3033 RMK A01 T00740008  RH  063%=      5-min Rain = 0
KST3 060451Z 14003KT 07/01 A3033 RMK A01 T00730008  RH  063%=      5-min Rain = 0
KST3 060452Z 15003KT 07/01 A3033 RMK A01 T00730008  RH  063%=      5-min Rain = 0
KST3 060453Z 15003KT 07/01 A3033 RMK A01 T00730008  RH  063%=      5-min Rain = 0
KST3 060454Z 15003KT 07/01 A3033 RMK A01 T00740009  RH  063%=      5-min Rain = 0
KST3 060455Z 15003KT 08/01 A3033 RMK A01 T00750009  RH  063%=      5-min Rain = 0
KST3 060456Z 16004KT 08/01 A3034 RMK A01 T00750009  RH  063%=      5-min Rain = 0
KST3 060457Z 16004KT 08/01 A3034 RMK A01 T00760009  RH  062%=      5-min Rain = 0
KST3 060458Z 16004KT 08/01 A3034 RMK A01 T00770009  RH  062%=      5-min Rain = 0
KST3 060459Z 16004KT 08/01 A3034 RMK A01 T00770009  RH  062%=      5-min Rain = 0
KST3 060500Z 17004KT 08/01 A3034 RMK A01 T00770008  RH  062%=      5-min Rain = 0
KST3 060501Z 17004KT 08/01 A3034 RMK A01 T00770009  RH  062%=      5-min Rain = 0
KST3 060502Z 17004KT 08/01 A3034 RMK A01 T00770008  RH  062%=      5-min Rain = 0
KST3 060503Z 17004KT 08/01 A3034 RMK A01 T00770009  RH  062%=      5-min Rain = 0
KST3 060504Z 17004KT 08/01 A3034 RMK A01 T00770008  RH  062%=      5-min Rain = 0
KST3 060505Z 17004KT 08/01 A3034 RMK A01 T00770008  RH  062%=      5-min Rain = 0
KST3 060506Z 18004KT 08/01 A3034 RMK A01 T00770007  RH  061%=      5-min Rain = 0
KST3 060507Z 18005KT 08/01 A3034 RMK A01 T00760007  RH  061%=      5-min Rain = 0
KST3 060508Z 18005KT 08/01 A3033 RMK A01 T00760006  RH  061%=      5-min Rain = 0
KST3 060509Z 19005KT 08/01 A3033 RMK A01 T00750006  RH  061%=      5-min Rain = 0
KST3 060510Z 19005KT 07/01 A3033 RMK A01 T00740005  RH  062%=      5-min Rain = 0
KST3 060511Z 19005KT 07/01 A3033 RMK A01 T00710005  RH  063%=      5-min Rain = 0
KST3 060512Z 19005KT 07/01 A3033 RMK A01 T00700005  RH  063%=      5-min Rain = 0
KST3 060513Z 19005KT 07/01 A3033 RMK A01 T00700006  RH  064%=      5-min Rain = 0
KST3 060514Z 19005KT 07/01 A3033 RMK A01 T00700007  RH  064%=      5-min Rain = 0
KST3 060515Z 19005KT 07/01 A3033 RMK A01 T00700006  RH  064%=      5-min Rain = 0
KST3 060516Z 19005KT 07/01 A3033 RMK A01 T00700006  RH  064%=      5-min Rain = 0
KST3 060517Z 19005KT 07/01 A3033 RMK A01 T00700006  RH  063%=      5-min Rain = 0
KST3 060518Z 19005KT 07/01 A3033 RMK A01 T00710006  RH  063%=      5-min Rain = 0
KST3 060519Z 19005KT 07/01 A3033 RMK A01 T00700005  RH  063%=      5-min Rain = 0
KST3 060520Z 20005KT 07/01 A3033 RMK A01 T00690005  RH  064%=      5-min Rain = 0
KST3 060521Z 20005KT 07/01 A3033 RMK A01 T00690005  RH  064%=      5-min Rain = 0
KST3 060522Z 20006KT 07/01 A3033 RMK A01 T00690005  RH  064%=      5-min Rain = 0
KST3 060523Z 20006KT 07/00 A3033 RMK A01 T00680004  RH  064%=      5-min Rain = 0
KST3 060524Z 20006KT 07/00 A3033 RMK A01 T00660004  RH  064%=      5-min Rain = 0
KST3 060525Z 20006KT 07/00 A3033 RMK A01 T00650004  RH  065%=      5-min Rain = 0
KST3 060526Z 21006KT 06/00 A3033 RMK A01 T00640004  RH  065%=      5-min Rain = 0
KST3 060527Z 21006KT 06/00 A3033 RMK A01 T00620004  RH  066%=      5-min Rain = 0
KST3 060528Z 21006KT 06/00 A3033 RMK A01 T00610004  RH  067%=      5-min Rain = 0
KST3 060529Z 21006KT 06/00 A3033 RMK A01 T00610004  RH  067%=      5-min Rain = 0
KST3 060530Z 21006KT 06/00 A3033 RMK A01 T00600003  RH  067%=      5-min Rain = 0
KST3 060531Z 21005KT 06/00 A3033 RMK A01 T00600003  RH  067%=      5-min Rain = 0
KST3 060532Z 21006KT 06/00 A3033 RMK A01 T00600003  RH  067%=      5-min Rain = 0
KST3 060533Z 21006KT 06/00 A3033 RMK A01 T00590003  RH  067%=      5-min Rain = 0
KST3 060534Z 21006KT 06/00 A3033 RMK A01 T00590003  RH  067%=      5-min Rain = 0
KST3 060535Z 21006KT 06/00 A3033 RMK A01 T00590003  RH  067%=      5-min Rain = 0
KST3 060536Z 21006KT 06/00 A3033 RMK A01 T00600003  RH  067%=      5-min Rain = 0
KST3 060537Z 21006KT 06/00 A3033 RMK A01 T00600002  RH  066%=      5-min Rain = 0
KST3 060538Z 22006KT 06/00 A3033 RMK A01 T00600001  RH  066%=      5-min Rain = 0
KST3 060539Z 22006KT 06/00 A3033 RMK A01 T00580000  RH  066%=      5-min Rain = 0
KST3 060540Z 22006KT 06/00 A3033 RMK A01 T005800-0  RH  066%=      5-min Rain = 0
KST3 060541Z 22006KT 06/M00 A3033 RMK A01 T00561001  RH  067%=      5-min Rain = 0
KST3 060542Z 22005KT 06/00 A3033 RMK A01 T005600-0  RH  067%=      5-min Rain = 0
KST3 060543Z 22005KT 06/00 A3033 RMK A01 T005600-0  RH  067%=      5-min Rain = 0
KST3 060544Z 22005KT 06/00 A3033 RMK A01 T005600-0  RH  067%=      5-min Rain = 0
KST3 060545Z 22005KT 06/00 A3033 RMK A01 T005600-0  RH  067%=      5-min Rain = 0
KST3 060546Z 22005KT 06/00 A3033 RMK A01 T005600-0  RH  067%=      5-min Rain = 0
KST3 060547Z 22005KT 06/M00 A3033 RMK A01 T00561001  RH  067%=      5-min Rain = 0
KST3 060548Z 22005KT 06/M00 A3033 RMK A01 T00561001  RH  067%=      5-min Rain = 0
KST3 060549Z 23005KT 06/M00 A3033 RMK A01 T00571001  RH  067%=      5-min Rain = 0
KST3 060550Z 22005KT 06/M00 A3033 RMK A01 T00561001  RH  067%=      5-min Rain = 0
KST3 060551Z 22005KT 06/M00 A3033 RMK A01 T00561001  RH  067%=      5-min Rain = 0
KST3 060552Z 22005KT 06/M00 A3033 RMK A01 T00561001  RH  067%=      5-min Rain = 0
KST3 060553Z 23005KT 06/M00 A3033 RMK A01 T00561002  RH  067%=      5-min Rain = 0
KST3 060554Z 22005KT 06/M00 A3033 RMK A01 T00551001  RH  067%=      5-min Rain = 0
KST3 060555Z 22005KT 06/M00 A3033 RMK A01 T00551001  RH  067%=      5-min Rain = 0
KST3 060556Z 22005KT 05/M00 A3033 RMK A01 T00541002  RH  067%=      5-min Rain = 0
KST3 060557Z 22005KT 05/M00 A3033 RMK A01 T00541002  RH  068%=      5-min Rain = 0
KST3 060558Z 22005KT 05/M00 A3033 RMK A01 T00541001  RH  068%=      5-min Rain = 0
KST3 060559Z 22005KT 05/00 A3033 RMK A01 T005400-0  RH  068%=      5-min Rain = 0

Page generated in 0.1388 seconds.